<?xml version="1.0" encoding="UTF-8" standalone="no" ?>
<gpx xmlns="http://www.topografix.com/GPX/1/1" xmlns:xsi="http://www.w3.org/2001/XMLSchema-instance" xsi:schemaLocation="http://www.topografix.com/GPX/1/1 http://www.topografix.com/GPX/1/1/gpx.xsd" version="1.1" creator="VisuGPX - https://www.visugpx.com">
  <metadata>
    <name>2023 - 36KM Neuillé</name>
  </metadata>
  <trk>
    <name><![CDATA[2023 - 36KM Neuillé_1]]></name>
    <trkseg>
      <trkpt lat="47.35111" lon="0.01746">
        <ele>77</ele>
        <time>2023-10-10T18:29:04Z</time>
      </trkpt>
      <trkpt lat="47.35115" lon="0.01741">
        <ele>77</ele>
        <time>2023-10-10T18:29:05Z</time>
      </trkpt>
      <trkpt lat="47.35123" lon="0.01734">
        <ele>77</ele>
        <time>2023-10-10T18:29:08Z</time>
      </trkpt>
      <trkpt lat="47.3513" lon="0.01732">
        <ele>77</ele>
        <time>2023-10-10T18:29:09Z</time>
      </trkpt>
      <trkpt lat="47.35141" lon="0.01741">
        <ele>77</ele>
        <time>2023-10-10T18:29:12Z</time>
      </trkpt>
      <trkpt lat="47.35432" lon="0.0214">
        <ele>78.5</ele>
        <time>2023-10-10T18:30:45Z</time>
      </trkpt>
      <trkpt lat="47.35508" lon="0.02231">
        <ele>79</ele>
        <time>2023-10-10T18:31:08Z</time>
      </trkpt>
      <trkpt lat="47.35515" lon="0.02231">
        <ele>79</ele>
        <time>2023-10-10T18:31:09Z</time>
      </trkpt>
      <trkpt lat="47.35523" lon="0.02212">
        <ele>79</ele>
        <time>2023-10-10T18:31:13Z</time>
      </trkpt>
      <trkpt lat="47.35523" lon="0.02133">
        <ele>79</ele>
        <time>2023-10-10T18:31:25Z</time>
      </trkpt>
      <trkpt lat="47.35521" lon="0.02115">
        <ele>78.8</ele>
        <time>2023-10-10T18:31:28Z</time>
      </trkpt>
      <trkpt lat="47.35515" lon="0.021">
        <ele>78.5</ele>
        <time>2023-10-10T18:31:31Z</time>
      </trkpt>
      <trkpt lat="47.35512" lon="0.02055">
        <ele>78.4</ele>
        <time>2023-10-10T18:31:38Z</time>
      </trkpt>
      <trkpt lat="47.35504" lon="0.02029">
        <ele>78.1</ele>
        <time>2023-10-10T18:31:43Z</time>
      </trkpt>
      <trkpt lat="47.35504" lon="0.02017">
        <ele>78.1</ele>
        <time>2023-10-10T18:31:45Z</time>
      </trkpt>
      <trkpt lat="47.35498" lon="0.01992">
        <ele>77.9</ele>
        <time>2023-10-10T18:31:49Z</time>
      </trkpt>
      <trkpt lat="47.35494" lon="0.01983">
        <ele>77.8</ele>
        <time>2023-10-10T18:31:51Z</time>
      </trkpt>
      <trkpt lat="47.35495" lon="0.01988">
        <ele>77.8</ele>
        <time>2023-10-10T18:31:51Z</time>
      </trkpt>
      <trkpt lat="47.3551" lon="0.01988">
        <ele>78.2</ele>
        <time>2023-10-10T18:31:55Z</time>
      </trkpt>
      <trkpt lat="47.35556" lon="0.01972">
        <ele>79</ele>
        <time>2023-10-10T18:32:06Z</time>
      </trkpt>
      <trkpt lat="47.35571" lon="0.01973">
        <ele>79.6</ele>
        <time>2023-10-10T18:32:09Z</time>
      </trkpt>
      <trkpt lat="47.35586" lon="0.01968">
        <ele>80.2</ele>
        <time>2023-10-10T18:32:13Z</time>
      </trkpt>
      <trkpt lat="47.35603" lon="0.01966">
        <ele>81.4</ele>
        <time>2023-10-10T18:32:17Z</time>
      </trkpt>
      <trkpt lat="47.35613" lon="0.01959">
        <ele>82.1</ele>
        <time>2023-10-10T18:32:20Z</time>
      </trkpt>
      <trkpt lat="47.35644" lon="0.0197">
        <ele>83.2</ele>
        <time>2023-10-10T18:32:27Z</time>
      </trkpt>
      <trkpt lat="47.3566" lon="0.0197">
        <ele>83.8</ele>
        <time>2023-10-10T18:32:31Z</time>
      </trkpt>
      <trkpt lat="47.35664" lon="0.01973">
        <ele>83.9</ele>
        <time>2023-10-10T18:32:32Z</time>
      </trkpt>
      <trkpt lat="47.35699" lon="0.01971">
        <ele>86.2</ele>
        <time>2023-10-10T18:32:40Z</time>
      </trkpt>
      <trkpt lat="47.35713" lon="0.01967">
        <ele>86.8</ele>
        <time>2023-10-10T18:32:43Z</time>
      </trkpt>
      <trkpt lat="47.35765" lon="0.01975">
        <ele>90</ele>
        <time>2023-10-10T18:32:56Z</time>
      </trkpt>
      <trkpt lat="47.35775" lon="0.01972">
        <ele>90.8</ele>
        <time>2023-10-10T18:32:58Z</time>
      </trkpt>
      <trkpt lat="47.35802" lon="0.01974">
        <ele>92.6</ele>
        <time>2023-10-10T18:33:04Z</time>
      </trkpt>
      <trkpt lat="47.35813" lon="0.01971">
        <ele>93.6</ele>
        <time>2023-10-10T18:33:07Z</time>
      </trkpt>
      <trkpt lat="47.35825" lon="0.01974">
        <ele>94.3</ele>
        <time>2023-10-10T18:33:10Z</time>
      </trkpt>
      <trkpt lat="47.35839" lon="0.01971">
        <ele>95.3</ele>
        <time>2023-10-10T18:33:13Z</time>
      </trkpt>
      <trkpt lat="47.35878" lon="0.01979">
        <ele>96.4</ele>
        <time>2023-10-10T18:33:22Z</time>
      </trkpt>
      <trkpt lat="47.35896" lon="0.01976">
        <ele>97.1</ele>
        <time>2023-10-10T18:33:26Z</time>
      </trkpt>
      <trkpt lat="47.35937" lon="0.01979">
        <ele>97.7</ele>
        <time>2023-10-10T18:33:36Z</time>
      </trkpt>
      <trkpt lat="47.35946" lon="0.01977">
        <ele>97.9</ele>
        <time>2023-10-10T18:33:38Z</time>
      </trkpt>
      <trkpt lat="47.35958" lon="0.02009">
        <ele>97.2</ele>
        <time>2023-10-10T18:33:44Z</time>
      </trkpt>
      <trkpt lat="47.35955" lon="0.02021">
        <ele>96.6</ele>
        <time>2023-10-10T18:33:46Z</time>
      </trkpt>
      <trkpt lat="47.35955" lon="0.02036">
        <ele>95.8</ele>
        <time>2023-10-10T18:33:48Z</time>
      </trkpt>
      <trkpt lat="47.35949" lon="0.02049">
        <ele>94.6</ele>
        <time>2023-10-10T18:33:51Z</time>
      </trkpt>
      <trkpt lat="47.3595" lon="0.02056">
        <ele>94.2</ele>
        <time>2023-10-10T18:33:52Z</time>
      </trkpt>
      <trkpt lat="47.35964" lon="0.02089">
        <ele>94.4</ele>
        <time>2023-10-10T18:33:58Z</time>
      </trkpt>
      <trkpt lat="47.35991" lon="0.0211">
        <ele>96.3</ele>
        <time>2023-10-10T18:34:05Z</time>
      </trkpt>
      <trkpt lat="47.36002" lon="0.02123">
        <ele>97.5</ele>
        <time>2023-10-10T18:34:09Z</time>
      </trkpt>
      <trkpt lat="47.36003" lon="0.02129">
        <ele>97.8</ele>
        <time>2023-10-10T18:34:10Z</time>
      </trkpt>
      <trkpt lat="47.36014" lon="0.02146">
        <ele>98.9</ele>
        <time>2023-10-10T18:34:13Z</time>
      </trkpt>
      <trkpt lat="47.36034" lon="0.02159">
        <ele>99.9</ele>
        <time>2023-10-10T18:34:18Z</time>
      </trkpt>
      <trkpt lat="47.36057" lon="0.02184">
        <ele>101.7</ele>
        <time>2023-10-10T18:34:25Z</time>
      </trkpt>
      <trkpt lat="47.36069" lon="0.02193">
        <ele>102.4</ele>
        <time>2023-10-10T18:34:28Z</time>
      </trkpt>
      <trkpt lat="47.36082" lon="0.02196">
        <ele>103</ele>
        <time>2023-10-10T18:34:31Z</time>
      </trkpt>
      <trkpt lat="47.36093" lon="0.0219">
        <ele>102.9</ele>
        <time>2023-10-10T18:34:34Z</time>
      </trkpt>
      <trkpt lat="47.36097" lon="0.02183">
        <ele>102.8</ele>
        <time>2023-10-10T18:34:35Z</time>
      </trkpt>
      <trkpt lat="47.36092" lon="0.02152">
        <ele>101.9</ele>
        <time>2023-10-10T18:34:40Z</time>
      </trkpt>
      <trkpt lat="47.36096" lon="0.021">
        <ele>101.5</ele>
        <time>2023-10-10T18:34:49Z</time>
      </trkpt>
      <trkpt lat="47.36102" lon="0.02074">
        <ele>101.7</ele>
        <time>2023-10-10T18:34:53Z</time>
      </trkpt>
      <trkpt lat="47.361" lon="0.02056">
        <ele>101.6</ele>
        <time>2023-10-10T18:34:56Z</time>
      </trkpt>
      <trkpt lat="47.36113" lon="0.02005">
        <ele>103.1</ele>
        <time>2023-10-10T18:35:05Z</time>
      </trkpt>
      <trkpt lat="47.36134" lon="0.01973">
        <ele>103.8</ele>
        <time>2023-10-10T18:35:12Z</time>
      </trkpt>
      <trkpt lat="47.36142" lon="0.01965">
        <ele>104.1</ele>
        <time>2023-10-10T18:35:14Z</time>
      </trkpt>
      <trkpt lat="47.36174" lon="0.0195">
        <ele>105</ele>
        <time>2023-10-10T18:35:22Z</time>
      </trkpt>
      <trkpt lat="47.36191" lon="0.01947">
        <ele>105</ele>
        <time>2023-10-10T18:35:26Z</time>
      </trkpt>
      <trkpt lat="47.36207" lon="0.01951">
        <ele>105.1</ele>
        <time>2023-10-10T18:35:30Z</time>
      </trkpt>
      <trkpt lat="47.36272" lon="0.01941">
        <ele>104.9</ele>
        <time>2023-10-10T18:35:45Z</time>
      </trkpt>
      <trkpt lat="47.36302" lon="0.01941">
        <ele>103.2</ele>
        <time>2023-10-10T18:35:52Z</time>
      </trkpt>
      <trkpt lat="47.3631" lon="0.01938">
        <ele>102.7</ele>
        <time>2023-10-10T18:35:54Z</time>
      </trkpt>
      <trkpt lat="47.36317" lon="0.01941">
        <ele>102.2</ele>
        <time>2023-10-10T18:35:55Z</time>
      </trkpt>
      <trkpt lat="47.36337" lon="0.01937">
        <ele>100.7</ele>
        <time>2023-10-10T18:36:00Z</time>
      </trkpt>
      <trkpt lat="47.36402" lon="0.01936">
        <ele>96.1</ele>
        <time>2023-10-10T18:36:15Z</time>
      </trkpt>
      <trkpt lat="47.36421" lon="0.01933">
        <ele>94.8</ele>
        <time>2023-10-10T18:36:20Z</time>
      </trkpt>
      <trkpt lat="47.36433" lon="0.01928">
        <ele>94.1</ele>
        <time>2023-10-10T18:36:23Z</time>
      </trkpt>
      <trkpt lat="47.36441" lon="0.01906">
        <ele>93.2</ele>
        <time>2023-10-10T18:36:27Z</time>
      </trkpt>
      <trkpt lat="47.36478" lon="0.01885">
        <ele>90.5</ele>
        <time>2023-10-10T18:36:36Z</time>
      </trkpt>
      <trkpt lat="47.36482" lon="0.01879">
        <ele>90.1</ele>
        <time>2023-10-10T18:36:37Z</time>
      </trkpt>
      <trkpt lat="47.36493" lon="0.01859">
        <ele>89.2</ele>
        <time>2023-10-10T18:36:41Z</time>
      </trkpt>
      <trkpt lat="47.36496" lon="0.0184">
        <ele>88.5</ele>
        <time>2023-10-10T18:36:44Z</time>
      </trkpt>
      <trkpt lat="47.36509" lon="0.018">
        <ele>87.2</ele>
        <time>2023-10-10T18:36:51Z</time>
      </trkpt>
      <trkpt lat="47.36519" lon="0.0178">
        <ele>85.7</ele>
        <time>2023-10-10T18:36:55Z</time>
      </trkpt>
      <trkpt lat="47.36527" lon="0.01771">
        <ele>84.8</ele>
        <time>2023-10-10T18:36:58Z</time>
      </trkpt>
      <trkpt lat="47.36539" lon="0.01744">
        <ele>83.9</ele>
        <time>2023-10-10T18:37:03Z</time>
      </trkpt>
      <trkpt lat="47.36549" lon="0.01736">
        <ele>83.6</ele>
        <time>2023-10-10T18:37:05Z</time>
      </trkpt>
      <trkpt lat="47.36559" lon="0.01702">
        <ele>82.3</ele>
        <time>2023-10-10T18:37:11Z</time>
      </trkpt>
      <trkpt lat="47.3657" lon="0.01687">
        <ele>81.9</ele>
        <time>2023-10-10T18:37:15Z</time>
      </trkpt>
      <trkpt lat="47.3658" lon="0.01689">
        <ele>81.8</ele>
        <time>2023-10-10T18:37:17Z</time>
      </trkpt>
      <trkpt lat="47.36584" lon="0.01697">
        <ele>82.1</ele>
        <time>2023-10-10T18:37:19Z</time>
      </trkpt>
      <trkpt lat="47.36593" lon="0.01701">
        <ele>82.3</ele>
        <time>2023-10-10T18:37:21Z</time>
      </trkpt>
      <trkpt lat="47.36602" lon="0.01716">
        <ele>83.3</ele>
        <time>2023-10-10T18:37:24Z</time>
      </trkpt>
      <trkpt lat="47.36623" lon="0.01726">
        <ele>84.1</ele>
        <time>2023-10-10T18:37:29Z</time>
      </trkpt>
      <trkpt lat="47.36632" lon="0.01737">
        <ele>84.5</ele>
        <time>2023-10-10T18:37:32Z</time>
      </trkpt>
      <trkpt lat="47.36638" lon="0.01738">
        <ele>84.6</ele>
        <time>2023-10-10T18:37:33Z</time>
      </trkpt>
      <trkpt lat="47.3665" lon="0.0175">
        <ele>85</ele>
        <time>2023-10-10T18:37:37Z</time>
      </trkpt>
      <trkpt lat="47.36661" lon="0.01756">
        <ele>85.2</ele>
        <time>2023-10-10T18:37:40Z</time>
      </trkpt>
      <trkpt lat="47.36668" lon="0.01766">
        <ele>85.5</ele>
        <time>2023-10-10T18:37:42Z</time>
      </trkpt>
      <trkpt lat="47.36672" lon="0.01768">
        <ele>85.5</ele>
        <time>2023-10-10T18:37:43Z</time>
      </trkpt>
      <trkpt lat="47.36695" lon="0.01758">
        <ele>84.2</ele>
        <time>2023-10-10T18:37:48Z</time>
      </trkpt>
      <trkpt lat="47.36739" lon="0.01712">
        <ele>80.8</ele>
        <time>2023-10-10T18:38:01Z</time>
      </trkpt>
      <trkpt lat="47.36759" lon="0.01683">
        <ele>79.7</ele>
        <time>2023-10-10T18:38:08Z</time>
      </trkpt>
      <trkpt lat="47.36811" lon="0.0159">
        <ele>76.8</ele>
        <time>2023-10-10T18:38:27Z</time>
      </trkpt>
      <trkpt lat="47.36827" lon="0.01553">
        <ele>76.5</ele>
        <time>2023-10-10T18:38:34Z</time>
      </trkpt>
      <trkpt lat="47.3684" lon="0.01515">
        <ele>74.5</ele>
        <time>2023-10-10T18:38:40Z</time>
      </trkpt>
      <trkpt lat="47.36851" lon="0.0147">
        <ele>74.8</ele>
        <time>2023-10-10T18:38:48Z</time>
      </trkpt>
      <trkpt lat="47.36862" lon="0.0138">
        <ele>74.9</ele>
        <time>2023-10-10T18:39:02Z</time>
      </trkpt>
      <trkpt lat="47.36887" lon="0.01311">
        <ele>74.1</ele>
        <time>2023-10-10T18:39:15Z</time>
      </trkpt>
      <trkpt lat="47.36893" lon="0.01287">
        <ele>73.2</ele>
        <time>2023-10-10T18:39:19Z</time>
      </trkpt>
      <trkpt lat="47.36904" lon="0.01181">
        <ele>69</ele>
        <time>2023-10-10T18:39:36Z</time>
      </trkpt>
      <trkpt lat="47.36918" lon="0.01136">
        <ele>67</ele>
        <time>2023-10-10T18:39:44Z</time>
      </trkpt>
      <trkpt lat="47.36951" lon="0.0105">
        <ele>66</ele>
        <time>2023-10-10T18:39:59Z</time>
      </trkpt>
      <trkpt lat="47.36957" lon="0.01018">
        <ele>66</ele>
        <time>2023-10-10T18:40:04Z</time>
      </trkpt>
      <trkpt lat="47.36954" lon="0.01002">
        <ele>66</ele>
        <time>2023-10-10T18:40:07Z</time>
      </trkpt>
      <trkpt lat="47.36943" lon="0.00991">
        <ele>65.7</ele>
        <time>2023-10-10T18:40:10Z</time>
      </trkpt>
      <trkpt lat="47.36919" lon="0.0099">
        <ele>65.6</ele>
        <time>2023-10-10T18:40:16Z</time>
      </trkpt>
      <trkpt lat="47.36895" lon="0.00984">
        <ele>65.9</ele>
        <time>2023-10-10T18:40:21Z</time>
      </trkpt>
      <trkpt lat="47.36864" lon="0.00976">
        <ele>66</ele>
        <time>2023-10-10T18:40:29Z</time>
      </trkpt>
      <trkpt lat="47.36795" lon="0.00953">
        <ele>67.4</ele>
        <time>2023-10-10T18:40:45Z</time>
      </trkpt>
      <trkpt lat="47.36764" lon="0.00939">
        <ele>68.9</ele>
        <time>2023-10-10T18:40:53Z</time>
      </trkpt>
      <trkpt lat="47.36682" lon="0.00893">
        <ele>72.7</ele>
        <time>2023-10-10T18:41:13Z</time>
      </trkpt>
      <trkpt lat="47.3666" lon="0.00883">
        <ele>73.7</ele>
        <time>2023-10-10T18:41:19Z</time>
      </trkpt>
      <trkpt lat="47.36622" lon="0.00861">
        <ele>76.2</ele>
        <time>2023-10-10T18:41:28Z</time>
      </trkpt>
      <trkpt lat="47.36613" lon="0.00852">
        <ele>76.5</ele>
        <time>2023-10-10T18:41:31Z</time>
      </trkpt>
      <trkpt lat="47.36586" lon="0.00833">
        <ele>77.8</ele>
        <time>2023-10-10T18:41:38Z</time>
      </trkpt>
      <trkpt lat="47.36547" lon="0.0081">
        <ele>79.7</ele>
        <time>2023-10-10T18:41:48Z</time>
      </trkpt>
      <trkpt lat="47.36533" lon="0.00793">
        <ele>80.6</ele>
        <time>2023-10-10T18:41:52Z</time>
      </trkpt>
      <trkpt lat="47.36516" lon="0.00784">
        <ele>81.8</ele>
        <time>2023-10-10T18:41:56Z</time>
      </trkpt>
      <trkpt lat="47.36507" lon="0.00776">
        <ele>82.5</ele>
        <time>2023-10-10T18:41:58Z</time>
      </trkpt>
      <trkpt lat="47.36481" lon="0.00763">
        <ele>84.4</ele>
        <time>2023-10-10T18:42:05Z</time>
      </trkpt>
      <trkpt lat="47.36465" lon="0.00746">
        <ele>85.6</ele>
        <time>2023-10-10T18:42:10Z</time>
      </trkpt>
      <trkpt lat="47.36449" lon="0.00738">
        <ele>87.1</ele>
        <time>2023-10-10T18:42:13Z</time>
      </trkpt>
      <trkpt lat="47.36435" lon="0.00727">
        <ele>88.2</ele>
        <time>2023-10-10T18:42:17Z</time>
      </trkpt>
      <trkpt lat="47.36425" lon="0.00723">
        <ele>89.1</ele>
        <time>2023-10-10T18:42:20Z</time>
      </trkpt>
      <trkpt lat="47.36409" lon="0.007">
        <ele>90.8</ele>
        <time>2023-10-10T18:42:25Z</time>
      </trkpt>
      <trkpt lat="47.36367" lon="0.00602">
        <ele>95.4</ele>
        <time>2023-10-10T18:42:43Z</time>
      </trkpt>
      <trkpt lat="47.3636" lon="0.00593">
        <ele>96.1</ele>
        <time>2023-10-10T18:42:45Z</time>
      </trkpt>
      <trkpt lat="47.3635" lon="0.00572">
        <ele>98</ele>
        <time>2023-10-10T18:42:49Z</time>
      </trkpt>
      <trkpt lat="47.36347" lon="0.00549">
        <ele>99.9</ele>
        <time>2023-10-10T18:42:53Z</time>
      </trkpt>
      <trkpt lat="47.36349" lon="0.00537">
        <ele>100.4</ele>
        <time>2023-10-10T18:42:55Z</time>
      </trkpt>
      <trkpt lat="47.36372" lon="0.00498">
        <ele>101</ele>
        <time>2023-10-10T18:43:03Z</time>
      </trkpt>
      <trkpt lat="47.36385" lon="0.00467">
        <ele>101.8</ele>
        <time>2023-10-10T18:43:09Z</time>
      </trkpt>
      <trkpt lat="47.36392" lon="0.00437">
        <ele>103.2</ele>
        <time>2023-10-10T18:43:14Z</time>
      </trkpt>
      <trkpt lat="47.36392" lon="0.00414">
        <ele>104.8</ele>
        <time>2023-10-10T18:43:18Z</time>
      </trkpt>
      <trkpt lat="47.36395" lon="0.00407">
        <ele>104.8</ele>
        <time>2023-10-10T18:43:19Z</time>
      </trkpt>
      <trkpt lat="47.36404" lon="0.00397">
        <ele>104.5</ele>
        <time>2023-10-10T18:43:22Z</time>
      </trkpt>
      <trkpt lat="47.36408" lon="0.00385">
        <ele>104.7</ele>
        <time>2023-10-10T18:43:24Z</time>
      </trkpt>
      <trkpt lat="47.36413" lon="0.00378">
        <ele>104.6</ele>
        <time>2023-10-10T18:43:25Z</time>
      </trkpt>
      <trkpt lat="47.36421" lon="0.00342">
        <ele>105.5</ele>
        <time>2023-10-10T18:43:31Z</time>
      </trkpt>
      <trkpt lat="47.36444" lon="0.00303">
        <ele>106</ele>
        <time>2023-10-10T18:43:39Z</time>
      </trkpt>
      <trkpt lat="47.36448" lon="0.00268">
        <ele>105.8</ele>
        <time>2023-10-10T18:43:45Z</time>
      </trkpt>
      <trkpt lat="47.36447" lon="0.0024">
        <ele>105.9</ele>
        <time>2023-10-10T18:43:50Z</time>
      </trkpt>
      <trkpt lat="47.36453" lon="0.00202">
        <ele>105.7</ele>
        <time>2023-10-10T18:43:56Z</time>
      </trkpt>
      <trkpt lat="47.36452" lon="0.00187">
        <ele>105.7</ele>
        <time>2023-10-10T18:43:58Z</time>
      </trkpt>
      <trkpt lat="47.3644" lon="0.00169">
        <ele>106.2</ele>
        <time>2023-10-10T18:44:02Z</time>
      </trkpt>
      <trkpt lat="47.36438" lon="0.00148">
        <ele>106.2</ele>
        <time>2023-10-10T18:44:05Z</time>
      </trkpt>
      <trkpt lat="47.36441" lon="0.00142">
        <ele>106.1</ele>
        <time>2023-10-10T18:44:07Z</time>
      </trkpt>
      <trkpt lat="47.36439" lon="0.00126">
        <ele>106.2</ele>
        <time>2023-10-10T18:44:09Z</time>
      </trkpt>
      <trkpt lat="47.36433" lon="0.0011">
        <ele>106.4</ele>
        <time>2023-10-10T18:44:12Z</time>
      </trkpt>
      <trkpt lat="47.36417" lon="0.00088">
        <ele>106.2</ele>
        <time>2023-10-10T18:44:17Z</time>
      </trkpt>
      <trkpt lat="47.36405" lon="0.00061">
        <ele>105.6</ele>
        <time>2023-10-10T18:44:22Z</time>
      </trkpt>
      <trkpt lat="47.36395" lon="8.0E-5">
        <ele>104.7</ele>
        <time>2023-10-10T18:44:31Z</time>
      </trkpt>
      <trkpt lat="47.36398" lon="5.0E-5">
        <ele>104.3</ele>
        <time>2023-10-10T18:44:32Z</time>
      </trkpt>
      <trkpt lat="47.36407" lon="4.0E-5">
        <ele>103.3</ele>
        <time>2023-10-10T18:44:34Z</time>
      </trkpt>
      <trkpt lat="47.36431" lon="-0.00019">
        <ele>100.3</ele>
        <time>2023-10-10T18:44:41Z</time>
      </trkpt>
      <trkpt lat="47.3648" lon="-0.00105">
        <ele>91.7</ele>
        <time>2023-10-10T18:44:58Z</time>
      </trkpt>
      <trkpt lat="47.36488" lon="-0.00123">
        <ele>90</ele>
        <time>2023-10-10T18:45:02Z</time>
      </trkpt>
      <trkpt lat="47.36501" lon="-0.0014">
        <ele>87.9</ele>
        <time>2023-10-10T18:45:06Z</time>
      </trkpt>
      <trkpt lat="47.3651" lon="-0.0017">
        <ele>85.5</ele>
        <time>2023-10-10T18:45:11Z</time>
      </trkpt>
      <trkpt lat="47.3652" lon="-0.00175">
        <ele>84.8</ele>
        <time>2023-10-10T18:45:14Z</time>
      </trkpt>
      <trkpt lat="47.36528" lon="-0.00171">
        <ele>84.7</ele>
        <time>2023-10-10T18:45:15Z</time>
      </trkpt>
      <trkpt lat="47.3654" lon="-0.00174">
        <ele>84.5</ele>
        <time>2023-10-10T18:45:18Z</time>
      </trkpt>
      <trkpt lat="47.3655" lon="-0.00184">
        <ele>83.8</ele>
        <time>2023-10-10T18:45:21Z</time>
      </trkpt>
      <trkpt lat="47.36551" lon="-0.00253">
        <ele>80.1</ele>
        <time>2023-10-10T18:45:32Z</time>
      </trkpt>
      <trkpt lat="47.36549" lon="-0.00274">
        <ele>79.6</ele>
        <time>2023-10-10T18:45:35Z</time>
      </trkpt>
      <trkpt lat="47.36551" lon="-0.00281">
        <ele>79.2</ele>
        <time>2023-10-10T18:45:37Z</time>
      </trkpt>
      <trkpt lat="47.36578" lon="-0.00304">
        <ele>78.1</ele>
        <time>2023-10-10T18:45:44Z</time>
      </trkpt>
      <trkpt lat="47.36584" lon="-0.00319">
        <ele>77.5</ele>
        <time>2023-10-10T18:45:47Z</time>
      </trkpt>
      <trkpt lat="47.36608" lon="-0.0036">
        <ele>76</ele>
        <time>2023-10-10T18:45:55Z</time>
      </trkpt>
      <trkpt lat="47.36623" lon="-0.0037">
        <ele>75.3</ele>
        <time>2023-10-10T18:45:59Z</time>
      </trkpt>
      <trkpt lat="47.36631" lon="-0.00381">
        <ele>74.6</ele>
        <time>2023-10-10T18:46:02Z</time>
      </trkpt>
      <trkpt lat="47.36634" lon="-0.004">
        <ele>74.1</ele>
        <time>2023-10-10T18:46:05Z</time>
      </trkpt>
      <trkpt lat="47.36618" lon="-0.00441">
        <ele>73.1</ele>
        <time>2023-10-10T18:46:12Z</time>
      </trkpt>
      <trkpt lat="47.36611" lon="-0.00451">
        <ele>72.8</ele>
        <time>2023-10-10T18:46:14Z</time>
      </trkpt>
      <trkpt lat="47.36604" lon="-0.00449">
        <ele>72.9</ele>
        <time>2023-10-10T18:46:16Z</time>
      </trkpt>
      <trkpt lat="47.36552" lon="-0.00407">
        <ele>75.6</ele>
        <time>2023-10-10T18:46:30Z</time>
      </trkpt>
      <trkpt lat="47.36538" lon="-0.00393">
        <ele>77.1</ele>
        <time>2023-10-10T18:46:34Z</time>
      </trkpt>
      <trkpt lat="47.36488" lon="-0.00359">
        <ele>83.4</ele>
        <time>2023-10-10T18:46:47Z</time>
      </trkpt>
      <trkpt lat="47.36482" lon="-0.00352">
        <ele>84.3</ele>
        <time>2023-10-10T18:46:49Z</time>
      </trkpt>
      <trkpt lat="47.3646" lon="-0.00339">
        <ele>87.6</ele>
        <time>2023-10-10T18:46:54Z</time>
      </trkpt>
      <trkpt lat="47.36429" lon="-0.00314">
        <ele>92.1</ele>
        <time>2023-10-10T18:47:02Z</time>
      </trkpt>
      <trkpt lat="47.36424" lon="-0.00304">
        <ele>93</ele>
        <time>2023-10-10T18:47:04Z</time>
      </trkpt>
      <trkpt lat="47.3642" lon="-0.00302">
        <ele>93.6</ele>
        <time>2023-10-10T18:47:05Z</time>
      </trkpt>
      <trkpt lat="47.36396" lon="-0.00319">
        <ele>95.7</ele>
        <time>2023-10-10T18:47:12Z</time>
      </trkpt>
      <trkpt lat="47.36372" lon="-0.00341">
        <ele>96.8</ele>
        <time>2023-10-10T18:47:18Z</time>
      </trkpt>
      <trkpt lat="47.36363" lon="-0.00344">
        <ele>97.5</ele>
        <time>2023-10-10T18:47:20Z</time>
      </trkpt>
      <trkpt lat="47.36328" lon="-0.00367">
        <ele>98</ele>
        <time>2023-10-10T18:47:29Z</time>
      </trkpt>
      <trkpt lat="47.36307" lon="-0.00376">
        <ele>98.4</ele>
        <time>2023-10-10T18:47:34Z</time>
      </trkpt>
      <trkpt lat="47.36292" lon="-0.00373">
        <ele>98.6</ele>
        <time>2023-10-10T18:47:38Z</time>
      </trkpt>
      <trkpt lat="47.36286" lon="-0.00374">
        <ele>98.5</ele>
        <time>2023-10-10T18:47:39Z</time>
      </trkpt>
      <trkpt lat="47.36278" lon="-0.00388">
        <ele>98</ele>
        <time>2023-10-10T18:47:42Z</time>
      </trkpt>
      <trkpt lat="47.36253" lon="-0.00459">
        <ele>96.5</ele>
        <time>2023-10-10T18:47:55Z</time>
      </trkpt>
      <trkpt lat="47.36244" lon="-0.00477">
        <ele>95.9</ele>
        <time>2023-10-10T18:47:58Z</time>
      </trkpt>
      <trkpt lat="47.36206" lon="-0.0052">
        <ele>96.3</ele>
        <time>2023-10-10T18:48:10Z</time>
      </trkpt>
      <trkpt lat="47.36176" lon="-0.00562">
        <ele>97.2</ele>
        <time>2023-10-10T18:48:19Z</time>
      </trkpt>
      <trkpt lat="47.36101" lon="-0.00652">
        <ele>100.7</ele>
        <time>2023-10-10T18:48:42Z</time>
      </trkpt>
      <trkpt lat="47.36059" lon="-0.00712">
        <ele>102.9</ele>
        <time>2023-10-10T18:48:55Z</time>
      </trkpt>
      <trkpt lat="47.36053" lon="-0.00716">
        <ele>103.1</ele>
        <time>2023-10-10T18:48:57Z</time>
      </trkpt>
      <trkpt lat="47.36045" lon="-0.00715">
        <ele>103.4</ele>
        <time>2023-10-10T18:48:59Z</time>
      </trkpt>
      <trkpt lat="47.36039" lon="-0.00717">
        <ele>103.6</ele>
        <time>2023-10-10T18:49:00Z</time>
      </trkpt>
      <trkpt lat="47.36018" lon="-0.0074">
        <ele>103.4</ele>
        <time>2023-10-10T18:49:06Z</time>
      </trkpt>
      <trkpt lat="47.35941" lon="-0.0084">
        <ele>101.8</ele>
        <time>2023-10-10T18:49:30Z</time>
      </trkpt>
      <trkpt lat="47.35899" lon="-0.00901">
        <ele>101</ele>
        <time>2023-10-10T18:49:44Z</time>
      </trkpt>
      <trkpt lat="47.35876" lon="-0.00946">
        <ele>100</ele>
        <time>2023-10-10T18:49:53Z</time>
      </trkpt>
      <trkpt lat="47.35872" lon="-0.0096">
        <ele>100</ele>
        <time>2023-10-10T18:49:55Z</time>
      </trkpt>
      <trkpt lat="47.35899" lon="-0.00993">
        <ele>100.1</ele>
        <time>2023-10-10T18:50:04Z</time>
      </trkpt>
      <trkpt lat="47.35952" lon="-0.01043">
        <ele>99.7</ele>
        <time>2023-10-10T18:50:18Z</time>
      </trkpt>
      <trkpt lat="47.35956" lon="-0.01051">
        <ele>99.6</ele>
        <time>2023-10-10T18:50:20Z</time>
      </trkpt>
      <trkpt lat="47.35957" lon="-0.01064">
        <ele>99.2</ele>
        <time>2023-10-10T18:50:22Z</time>
      </trkpt>
      <trkpt lat="47.35943" lon="-0.01102">
        <ele>99.1</ele>
        <time>2023-10-10T18:50:29Z</time>
      </trkpt>
      <trkpt lat="47.35941" lon="-0.01115">
        <ele>99</ele>
        <time>2023-10-10T18:50:31Z</time>
      </trkpt>
      <trkpt lat="47.35935" lon="-0.01125">
        <ele>98.8</ele>
        <time>2023-10-10T18:50:33Z</time>
      </trkpt>
      <trkpt lat="47.35935" lon="-0.01134">
        <ele>98.5</ele>
        <time>2023-10-10T18:50:34Z</time>
      </trkpt>
      <trkpt lat="47.35922" lon="-0.01161">
        <ele>98</ele>
        <time>2023-10-10T18:50:40Z</time>
      </trkpt>
      <trkpt lat="47.35905" lon="-0.01207">
        <ele>97</ele>
        <time>2023-10-10T18:50:48Z</time>
      </trkpt>
      <trkpt lat="47.35897" lon="-0.01236">
        <ele>96.6</ele>
        <time>2023-10-10T18:50:53Z</time>
      </trkpt>
      <trkpt lat="47.35896" lon="-0.01249">
        <ele>96.5</ele>
        <time>2023-10-10T18:50:55Z</time>
      </trkpt>
      <trkpt lat="47.35883" lon="-0.01293">
        <ele>96.4</ele>
        <time>2023-10-10T18:51:03Z</time>
      </trkpt>
      <trkpt lat="47.35879" lon="-0.01322">
        <ele>96.7</ele>
        <time>2023-10-10T18:51:07Z</time>
      </trkpt>
      <trkpt lat="47.35877" lon="-0.01368">
        <ele>96.7</ele>
        <time>2023-10-10T18:51:15Z</time>
      </trkpt>
      <trkpt lat="47.3585" lon="-0.01484">
        <ele>99.2</ele>
        <time>2023-10-10T18:51:34Z</time>
      </trkpt>
      <trkpt lat="47.35835" lon="-0.01592">
        <ele>100.9</ele>
        <time>2023-10-10T18:51:51Z</time>
      </trkpt>
      <trkpt lat="47.35829" lon="-0.01614">
        <ele>101.2</ele>
        <time>2023-10-10T18:51:55Z</time>
      </trkpt>
      <trkpt lat="47.3582" lon="-0.01632">
        <ele>101.2</ele>
        <time>2023-10-10T18:51:59Z</time>
      </trkpt>
      <trkpt lat="47.35783" lon="-0.01676">
        <ele>103.3</ele>
        <time>2023-10-10T18:52:10Z</time>
      </trkpt>
      <trkpt lat="47.35764" lon="-0.01704">
        <ele>103.8</ele>
        <time>2023-10-10T18:52:16Z</time>
      </trkpt>
      <trkpt lat="47.357" lon="-0.01893">
        <ele>107</ele>
        <time>2023-10-10T18:52:49Z</time>
      </trkpt>
      <trkpt lat="47.35658" lon="-0.01974">
        <ele>107</ele>
        <time>2023-10-10T18:53:06Z</time>
      </trkpt>
      <trkpt lat="47.35648" lon="-0.01988">
        <ele>107</ele>
        <time>2023-10-10T18:53:09Z</time>
      </trkpt>
      <trkpt lat="47.35642" lon="-0.02006">
        <ele>107</ele>
        <time>2023-10-10T18:53:12Z</time>
      </trkpt>
      <trkpt lat="47.35643" lon="-0.02019">
        <ele>107</ele>
        <time>2023-10-10T18:53:14Z</time>
      </trkpt>
      <trkpt lat="47.35653" lon="-0.02044">
        <ele>106.7</ele>
        <time>2023-10-10T18:53:19Z</time>
      </trkpt>
      <trkpt lat="47.35671" lon="-0.02115">
        <ele>106</ele>
        <time>2023-10-10T18:53:31Z</time>
      </trkpt>
      <trkpt lat="47.35679" lon="-0.02135">
        <ele>106</ele>
        <time>2023-10-10T18:53:34Z</time>
      </trkpt>
      <trkpt lat="47.35702" lon="-0.02242">
        <ele>105.9</ele>
        <time>2023-10-10T18:53:52Z</time>
      </trkpt>
      <trkpt lat="47.35704" lon="-0.02267">
        <ele>106</ele>
        <time>2023-10-10T18:53:56Z</time>
      </trkpt>
      <trkpt lat="47.35703" lon="-0.02307">
        <ele>105.3</ele>
        <time>2023-10-10T18:54:02Z</time>
      </trkpt>
      <trkpt lat="47.357" lon="-0.0234">
        <ele>105</ele>
        <time>2023-10-10T18:54:08Z</time>
      </trkpt>
      <trkpt lat="47.35701" lon="-0.0236">
        <ele>105</ele>
        <time>2023-10-10T18:54:11Z</time>
      </trkpt>
      <trkpt lat="47.35698" lon="-0.0238">
        <ele>105</ele>
        <time>2023-10-10T18:54:14Z</time>
      </trkpt>
      <trkpt lat="47.35707" lon="-0.02468">
        <ele>103.6</ele>
        <time>2023-10-10T18:54:28Z</time>
      </trkpt>
      <trkpt lat="47.3571" lon="-0.02523">
        <ele>102.6</ele>
        <time>2023-10-10T18:54:37Z</time>
      </trkpt>
      <trkpt lat="47.35707" lon="-0.02559">
        <ele>101.9</ele>
      </trkpt>
      <trkpt lat="47.35596" lon="-0.02603">
        <ele>103.2</ele>
      </trkpt>
      <trkpt lat="47.3553" lon="-0.0263">
        <ele>104</ele>
      </trkpt>
      <trkpt lat="47.35507" lon="-0.02635">
        <ele>103.4</ele>
      </trkpt>
      <trkpt lat="47.35491" lon="-0.02634">
        <ele>103.1</ele>
      </trkpt>
      <trkpt lat="47.35461" lon="-0.02636">
        <ele>102.6</ele>
      </trkpt>
      <trkpt lat="47.35404" lon="-0.02636">
        <ele>102</ele>
      </trkpt>
      <trkpt lat="47.35341" lon="-0.02626">
        <ele>101</ele>
      </trkpt>
      <trkpt lat="47.35293" lon="-0.0261">
        <ele>99.5</ele>
      </trkpt>
      <trkpt lat="47.35275" lon="-0.02602">
        <ele>98.9</ele>
        <time>2023-10-10T16:50:05Z</time>
      </trkpt>
      <trkpt lat="47.35275" lon="-0.02602">
        <ele>98.9</ele>
        <time>2023-10-10T16:50:05Z</time>
      </trkpt>
      <trkpt lat="47.35245" lon="-0.02582">
        <ele>97</ele>
        <time>2023-10-10T16:50:12Z</time>
      </trkpt>
      <trkpt lat="47.35179" lon="-0.02549">
        <ele>93.4</ele>
        <time>2023-10-10T16:50:29Z</time>
      </trkpt>
      <trkpt lat="47.35163" lon="-0.02547">
        <ele>92.4</ele>
        <time>2023-10-10T16:50:32Z</time>
      </trkpt>
      <trkpt lat="47.35125" lon="-0.02549">
        <ele>89.9</ele>
        <time>2023-10-10T16:50:41Z</time>
      </trkpt>
      <trkpt lat="47.35105" lon="-0.02553">
        <ele>87.9</ele>
        <time>2023-10-10T16:50:46Z</time>
      </trkpt>
      <trkpt lat="47.35058" lon="-0.0255">
        <ele>84.4</ele>
        <time>2023-10-10T16:50:57Z</time>
      </trkpt>
      <trkpt lat="47.35042" lon="-0.02544">
        <ele>83.7</ele>
        <time>2023-10-10T16:51:01Z</time>
      </trkpt>
      <trkpt lat="47.35017" lon="-0.02539">
        <ele>82.4</ele>
        <time>2023-10-10T16:51:07Z</time>
      </trkpt>
      <trkpt lat="47.34976" lon="-0.02524">
        <ele>80.8</ele>
        <time>2023-10-10T16:51:17Z</time>
      </trkpt>
      <trkpt lat="47.34879" lon="-0.02484">
        <ele>76.5</ele>
        <time>2023-10-10T16:51:40Z</time>
      </trkpt>
      <trkpt lat="47.34823" lon="-0.02457">
        <ele>72.9</ele>
        <time>2023-10-10T16:51:54Z</time>
      </trkpt>
      <trkpt lat="47.34774" lon="-0.02416">
        <ele>68</ele>
        <time>2023-10-10T16:52:07Z</time>
      </trkpt>
      <trkpt lat="47.34739" lon="-0.02383">
        <ele>66.4</ele>
        <time>2023-10-10T16:52:17Z</time>
      </trkpt>
      <trkpt lat="47.34684" lon="-0.02316">
        <ele>63</ele>
        <time>2023-10-10T16:52:33Z</time>
      </trkpt>
      <trkpt lat="47.34668" lon="-0.02295">
        <ele>62</ele>
        <time>2023-10-10T16:52:38Z</time>
      </trkpt>
      <trkpt lat="47.34625" lon="-0.02225">
        <ele>60.5</ele>
        <time>2023-10-10T16:52:53Z</time>
      </trkpt>
      <trkpt lat="47.3456" lon="-0.02128">
        <ele>58.1</ele>
        <time>2023-10-10T16:53:15Z</time>
      </trkpt>
      <trkpt lat="47.34555" lon="-0.02112">
        <ele>58</ele>
        <time>2023-10-10T16:53:18Z</time>
      </trkpt>
      <trkpt lat="47.34558" lon="-0.02102">
        <ele>57.7</ele>
        <time>2023-10-10T16:53:19Z</time>
      </trkpt>
      <trkpt lat="47.34615" lon="-0.01999">
        <ele>60.1</ele>
        <time>2023-10-10T16:53:40Z</time>
      </trkpt>
      <trkpt lat="47.34633" lon="-0.01949">
        <ele>61.6</ele>
        <time>2023-10-10T16:53:49Z</time>
      </trkpt>
      <trkpt lat="47.34657" lon="-0.01861">
        <ele>62.7</ele>
        <time>2023-10-10T16:54:04Z</time>
      </trkpt>
      <trkpt lat="47.3467" lon="-0.01829">
        <ele>64.1</ele>
        <time>2023-10-10T16:54:10Z</time>
      </trkpt>
      <trkpt lat="47.34671" lon="-0.01815">
        <ele>64.2</ele>
        <time>2023-10-10T16:54:13Z</time>
      </trkpt>
      <trkpt lat="47.34677" lon="-0.01798">
        <ele>64.2</ele>
        <time>2023-10-10T16:54:16Z</time>
      </trkpt>
      <trkpt lat="47.34687" lon="-0.0179">
        <ele>64.6</ele>
        <time>2023-10-10T16:54:18Z</time>
      </trkpt>
      <trkpt lat="47.34722" lon="-0.0178">
        <ele>66</ele>
        <time>2023-10-10T16:54:27Z</time>
      </trkpt>
      <trkpt lat="47.34738" lon="-0.01773">
        <ele>66.4</ele>
        <time>2023-10-10T16:54:30Z</time>
      </trkpt>
      <trkpt lat="47.34758" lon="-0.01758">
        <ele>66.8</ele>
        <time>2023-10-10T16:54:36Z</time>
      </trkpt>
      <trkpt lat="47.34808" lon="-0.01711">
        <ele>69.1</ele>
        <time>2023-10-10T16:54:50Z</time>
      </trkpt>
      <trkpt lat="47.34838" lon="-0.01697">
        <ele>70.3</ele>
        <time>2023-10-10T16:54:57Z</time>
      </trkpt>
      <trkpt lat="47.34878" lon="-0.01668">
        <ele>72.2</ele>
        <time>2023-10-10T16:55:07Z</time>
      </trkpt>
      <trkpt lat="47.3489" lon="-0.01663">
        <ele>73.1</ele>
        <time>2023-10-10T16:55:10Z</time>
      </trkpt>
      <trkpt lat="47.34899" lon="-0.01654">
        <ele>73.7</ele>
        <time>2023-10-10T16:55:13Z</time>
      </trkpt>
      <trkpt lat="47.34906" lon="-0.01655">
        <ele>74.2</ele>
        <time>2023-10-10T16:55:14Z</time>
      </trkpt>
      <trkpt lat="47.34917" lon="-0.01652">
        <ele>75</ele>
        <time>2023-10-10T16:55:17Z</time>
      </trkpt>
      <trkpt lat="47.34935" lon="-0.01632">
        <ele>75.6</ele>
        <time>2023-10-10T16:55:22Z</time>
      </trkpt>
      <trkpt lat="47.34949" lon="-0.01625">
        <ele>76.3</ele>
        <time>2023-10-10T16:55:26Z</time>
      </trkpt>
      <trkpt lat="47.34972" lon="-0.0162">
        <ele>78</ele>
        <time>2023-10-10T16:55:31Z</time>
      </trkpt>
      <trkpt lat="47.34976" lon="-0.01617">
        <ele>78.3</ele>
        <time>2023-10-10T16:55:32Z</time>
      </trkpt>
      <trkpt lat="47.34983" lon="-0.01605">
        <ele>78.6</ele>
        <time>2023-10-10T16:55:35Z</time>
      </trkpt>
      <trkpt lat="47.34985" lon="-0.01593">
        <ele>78.6</ele>
        <time>2023-10-10T16:55:37Z</time>
      </trkpt>
      <trkpt lat="47.34999" lon="-0.01588">
        <ele>79.9</ele>
        <time>2023-10-10T16:55:40Z</time>
      </trkpt>
      <trkpt lat="47.35003" lon="-0.01575">
        <ele>79.9</ele>
        <time>2023-10-10T16:55:42Z</time>
      </trkpt>
      <trkpt lat="47.35007" lon="-0.01571">
        <ele>80.2</ele>
        <time>2023-10-10T16:55:43Z</time>
      </trkpt>
      <trkpt lat="47.35047" lon="-0.01553">
        <ele>84</ele>
        <time>2023-10-10T16:55:53Z</time>
      </trkpt>
      <trkpt lat="47.35051" lon="-0.01537">
        <ele>83.8</ele>
        <time>2023-10-10T16:55:56Z</time>
      </trkpt>
      <trkpt lat="47.35065" lon="-0.01523">
        <ele>84.8</ele>
        <time>2023-10-10T16:56:00Z</time>
      </trkpt>
      <trkpt lat="47.35078" lon="-0.01499">
        <ele>85.4</ele>
        <time>2023-10-10T16:56:05Z</time>
      </trkpt>
      <trkpt lat="47.35081" lon="-0.01482">
        <ele>85.7</ele>
        <time>2023-10-10T16:56:07Z</time>
      </trkpt>
      <trkpt lat="47.35097" lon="-0.0147">
        <ele>87.4</ele>
        <time>2023-10-10T16:56:12Z</time>
      </trkpt>
      <trkpt lat="47.35102" lon="-0.01451">
        <ele>87</ele>
        <time>2023-10-10T16:56:15Z</time>
      </trkpt>
      <trkpt lat="47.35109" lon="-0.01437">
        <ele>87.2</ele>
        <time>2023-10-10T16:56:18Z</time>
      </trkpt>
      <trkpt lat="47.35117" lon="-0.0143">
        <ele>87.8</ele>
        <time>2023-10-10T16:56:20Z</time>
      </trkpt>
      <trkpt lat="47.35126" lon="-0.01415">
        <ele>88</ele>
        <time>2023-10-10T16:56:23Z</time>
      </trkpt>
      <trkpt lat="47.3514" lon="-0.01407">
        <ele>89.5</ele>
        <time>2023-10-10T16:56:26Z</time>
      </trkpt>
      <trkpt lat="47.35145" lon="-0.01399">
        <ele>89.6</ele>
        <time>2023-10-10T16:56:28Z</time>
      </trkpt>
      <trkpt lat="47.35151" lon="-0.01399">
        <ele>90.5</ele>
        <time>2023-10-10T16:56:30Z</time>
      </trkpt>
      <trkpt lat="47.35154" lon="-0.01385">
        <ele>89.8</ele>
        <time>2023-10-10T16:56:32Z</time>
      </trkpt>
      <trkpt lat="47.3516" lon="-0.01374">
        <ele>89.4</ele>
        <time>2023-10-10T16:56:34Z</time>
      </trkpt>
      <trkpt lat="47.35167" lon="-0.0137">
        <ele>90</ele>
        <time>2023-10-10T16:56:36Z</time>
      </trkpt>
      <trkpt lat="47.35182" lon="-0.01368">
        <ele>91.4</ele>
        <time>2023-10-10T16:56:39Z</time>
      </trkpt>
      <trkpt lat="47.35194" lon="-0.01359">
        <ele>91.8</ele>
        <time>2023-10-10T16:56:43Z</time>
      </trkpt>
      <trkpt lat="47.35202" lon="-0.01359">
        <ele>92.4</ele>
        <time>2023-10-10T16:56:44Z</time>
      </trkpt>
      <trkpt lat="47.35207" lon="-0.01351">
        <ele>92</ele>
        <time>2023-10-10T16:56:46Z</time>
      </trkpt>
      <trkpt lat="47.35214" lon="-0.01353">
        <ele>92.6</ele>
        <time>2023-10-10T16:56:48Z</time>
      </trkpt>
      <trkpt lat="47.35225" lon="-0.01363">
        <ele>94.3</ele>
        <time>2023-10-10T16:56:51Z</time>
      </trkpt>
      <trkpt lat="47.35236" lon="-0.01366">
        <ele>95</ele>
        <time>2023-10-10T16:56:53Z</time>
      </trkpt>
      <trkpt lat="47.35255" lon="-0.01398">
        <ele>98.8</ele>
        <time>2023-10-10T16:57:00Z</time>
      </trkpt>
      <trkpt lat="47.35281" lon="-0.01426">
        <ele>100.9</ele>
        <time>2023-10-10T16:57:08Z</time>
      </trkpt>
      <trkpt lat="47.3532" lon="-0.01452">
        <ele>103.9</ele>
        <time>2023-10-10T16:57:18Z</time>
      </trkpt>
      <trkpt lat="47.35336" lon="-0.01458">
        <ele>104.6</ele>
        <time>2023-10-10T16:57:22Z</time>
      </trkpt>
      <trkpt lat="47.35339" lon="-0.01458">
        <ele>104.8</ele>
        <time>2023-10-10T16:57:22Z</time>
      </trkpt>
      <trkpt lat="47.35341" lon="-0.01455">
        <ele>104.8</ele>
        <time>2023-10-10T16:57:23Z</time>
      </trkpt>
      <trkpt lat="47.35333" lon="-0.0144">
        <ele>104</ele>
        <time>2023-10-10T16:57:26Z</time>
      </trkpt>
      <trkpt lat="47.35292" lon="-0.01396">
        <ele>100.3</ele>
        <time>2023-10-10T16:57:38Z</time>
      </trkpt>
      <trkpt lat="47.35272" lon="-0.0136">
        <ele>96.5</ele>
        <time>2023-10-10T16:57:45Z</time>
      </trkpt>
      <trkpt lat="47.35266" lon="-0.01354">
        <ele>95.8</ele>
        <time>2023-10-10T16:57:47Z</time>
      </trkpt>
      <trkpt lat="47.35249" lon="-0.01345">
        <ele>93.8</ele>
        <time>2023-10-10T16:57:51Z</time>
      </trkpt>
      <trkpt lat="47.35227" lon="-0.01343">
        <ele>92.3</ele>
        <time>2023-10-10T16:57:56Z</time>
      </trkpt>
      <trkpt lat="47.35216" lon="-0.0135">
        <ele>92.4</ele>
        <time>2023-10-10T16:57:59Z</time>
      </trkpt>
      <trkpt lat="47.35198" lon="-0.01341">
        <ele>90.7</ele>
        <time>2023-10-10T16:58:03Z</time>
      </trkpt>
      <trkpt lat="47.35157" lon="-0.01307">
        <ele>84</ele>
        <time>2023-10-10T16:58:14Z</time>
      </trkpt>
      <trkpt lat="47.35121" lon="-0.01273">
        <ele>77.9</ele>
        <time>2023-10-10T16:58:24Z</time>
      </trkpt>
      <trkpt lat="47.35037" lon="-0.0117">
        <ele>67.7</ele>
        <time>2023-10-10T16:58:50Z</time>
      </trkpt>
      <trkpt lat="47.35015" lon="-0.01147">
        <ele>65.8</ele>
        <time>2023-10-10T16:58:56Z</time>
      </trkpt>
      <trkpt lat="47.35004" lon="-0.01141">
        <ele>65.2</ele>
        <time>2023-10-10T16:58:59Z</time>
      </trkpt>
      <trkpt lat="47.34995" lon="-0.01142">
        <ele>65.1</ele>
        <time>2023-10-10T16:59:01Z</time>
      </trkpt>
      <trkpt lat="47.34987" lon="-0.01152">
        <ele>65.3</ele>
        <time>2023-10-10T16:59:03Z</time>
      </trkpt>
      <trkpt lat="47.34952" lon="-0.01218">
        <ele>66.1</ele>
        <time>2023-10-10T16:59:17Z</time>
      </trkpt>
      <trkpt lat="47.3493" lon="-0.01265">
        <ele>67.3</ele>
        <time>2023-10-10T16:59:26Z</time>
      </trkpt>
      <trkpt lat="47.34921" lon="-0.01269">
        <ele>66.9</ele>
        <time>2023-10-10T16:59:28Z</time>
      </trkpt>
      <trkpt lat="47.34916" lon="-0.01268">
        <ele>66.6</ele>
        <time>2023-10-10T16:59:29Z</time>
      </trkpt>
      <trkpt lat="47.34887" lon="-0.01243">
        <ele>64.9</ele>
        <time>2023-10-10T16:59:37Z</time>
      </trkpt>
      <trkpt lat="47.34878" lon="-0.0124">
        <ele>64.6</ele>
        <time>2023-10-10T16:59:39Z</time>
      </trkpt>
      <trkpt lat="47.34868" lon="-0.01243">
        <ele>64.2</ele>
        <time>2023-10-10T16:59:42Z</time>
      </trkpt>
      <trkpt lat="47.34818" lon="-0.01314">
        <ele>62</ele>
        <time>2023-10-10T16:59:58Z</time>
      </trkpt>
      <trkpt lat="47.348" lon="-0.01328">
        <ele>60.8</ele>
        <time>2023-10-10T17:00:02Z</time>
      </trkpt>
      <trkpt lat="47.34789" lon="-0.01328">
        <ele>60.4</ele>
        <time>2023-10-10T17:00:05Z</time>
      </trkpt>
      <trkpt lat="47.34774" lon="-0.01318">
        <ele>59.8</ele>
        <time>2023-10-10T17:00:09Z</time>
      </trkpt>
      <trkpt lat="47.34736" lon="-0.01277">
        <ele>56.5</ele>
        <time>2023-10-10T17:00:20Z</time>
      </trkpt>
      <trkpt lat="47.34722" lon="-0.01266">
        <ele>55</ele>
        <time>2023-10-10T17:00:24Z</time>
      </trkpt>
      <trkpt lat="47.34719" lon="-0.01257">
        <ele>54.8</ele>
        <time>2023-10-10T17:00:25Z</time>
      </trkpt>
      <trkpt lat="47.34732" lon="-0.01226">
        <ele>55.1</ele>
        <time>2023-10-10T17:00:31Z</time>
      </trkpt>
      <trkpt lat="47.34792" lon="-0.01106">
        <ele>56.8</ele>
        <time>2023-10-10T17:00:55Z</time>
      </trkpt>
      <trkpt lat="47.34874" lon="-0.00957">
        <ele>57.5</ele>
        <time>2023-10-10T17:01:25Z</time>
      </trkpt>
      <trkpt lat="47.34941" lon="-0.00807">
        <ele>57.8</ele>
        <time>2023-10-10T17:01:53Z</time>
      </trkpt>
      <trkpt lat="47.34956" lon="-0.00757">
        <ele>57.5</ele>
        <time>2023-10-10T17:02:02Z</time>
      </trkpt>
      <trkpt lat="47.34961" lon="-0.00728">
        <ele>57.6</ele>
        <time>2023-10-10T17:02:07Z</time>
      </trkpt>
      <trkpt lat="47.34969" lon="-0.00627">
        <ele>58.3</ele>
        <time>2023-10-10T17:02:23Z</time>
      </trkpt>
      <trkpt lat="47.34981" lon="-0.00564">
        <ele>58.6</ele>
        <time>2023-10-10T17:02:33Z</time>
      </trkpt>
      <trkpt lat="47.35032" lon="-0.00373">
        <ele>59</ele>
        <time>2023-10-10T17:03:06Z</time>
      </trkpt>
      <trkpt lat="47.35067" lon="-0.00196">
        <ele>60.4</ele>
        <time>2023-10-10T17:03:35Z</time>
      </trkpt>
      <trkpt lat="47.35107" lon="-0.00035">
        <ele>60.1</ele>
        <time>2023-10-10T17:04:02Z</time>
      </trkpt>
      <trkpt lat="47.35114" lon="4.0E-5">
        <ele>61.1</ele>
        <time>2023-10-10T17:04:08Z</time>
      </trkpt>
      <trkpt lat="47.3512" lon="0.00056">
        <ele>61.7</ele>
        <time>2023-10-10T17:04:17Z</time>
      </trkpt>
      <trkpt lat="47.35124" lon="0.00137">
        <ele>62</ele>
        <time>2023-10-10T17:04:30Z</time>
      </trkpt>
      <trkpt lat="47.35139" lon="0.00268">
        <ele>63</ele>
        <time>2023-10-10T17:04:51Z</time>
      </trkpt>
      <trkpt lat="47.35147" lon="0.00392">
        <ele>64</ele>
        <time>2023-10-10T17:05:10Z</time>
      </trkpt>
      <trkpt lat="47.35162" lon="0.00499">
        <ele>66</ele>
        <time>2023-10-10T17:05:28Z</time>
      </trkpt>
      <trkpt lat="47.35183" lon="0.00583">
        <ele>67.8</ele>
        <time>2023-10-10T17:05:42Z</time>
      </trkpt>
      <trkpt lat="47.35195" lon="0.00668">
        <ele>69</ele>
        <time>2023-10-10T17:05:55Z</time>
      </trkpt>
      <trkpt lat="47.35198" lon="0.00738">
        <ele>70.9</ele>
        <time>2023-10-10T17:06:07Z</time>
      </trkpt>
      <trkpt lat="47.35197" lon="0.00781">
        <ele>71.9</ele>
        <time>2023-10-10T17:06:13Z</time>
      </trkpt>
      <trkpt lat="47.352" lon="0.008">
        <ele>72</ele>
        <time>2023-10-10T17:06:16Z</time>
      </trkpt>
      <trkpt lat="47.35207" lon="0.00829">
        <ele>72.8</ele>
        <time>2023-10-10T17:06:21Z</time>
      </trkpt>
      <trkpt lat="47.35219" lon="0.00858">
        <ele>73.1</ele>
        <time>2023-10-10T17:06:27Z</time>
      </trkpt>
      <trkpt lat="47.35226" lon="0.00884">
        <ele>73.7</ele>
        <time>2023-10-10T17:06:31Z</time>
      </trkpt>
      <trkpt lat="47.3526" lon="0.00963">
        <ele>74.3</ele>
        <time>2023-10-10T17:06:46Z</time>
      </trkpt>
      <trkpt lat="47.35269" lon="0.0099">
        <ele>74.5</ele>
        <time>2023-10-10T17:06:51Z</time>
      </trkpt>
      <trkpt lat="47.35285" lon="0.01023">
        <ele>74.4</ele>
        <time>2023-10-10T17:06:57Z</time>
      </trkpt>
      <trkpt lat="47.35296" lon="0.01065">
        <ele>74.8</ele>
        <time>2023-10-10T17:07:04Z</time>
      </trkpt>
      <trkpt lat="47.35302" lon="0.01101">
        <ele>75</ele>
        <time>2023-10-10T17:07:10Z</time>
      </trkpt>
      <trkpt lat="47.3532" lon="0.01172">
        <ele>75.1</ele>
        <time>2023-10-10T17:07:22Z</time>
      </trkpt>
      <trkpt lat="47.35347" lon="0.0131">
        <ele>72.4</ele>
        <time>2023-10-10T17:07:45Z</time>
      </trkpt>
      <trkpt lat="47.35366" lon="0.01372">
        <ele>70.8</ele>
        <time>2023-10-10T17:07:56Z</time>
      </trkpt>
      <trkpt lat="47.35386" lon="0.01456">
        <ele>70.5</ele>
        <time>2023-10-10T17:08:10Z</time>
      </trkpt>
      <trkpt lat="47.35392" lon="0.01505">
        <ele>71</ele>
        <time>2023-10-10T17:08:18Z</time>
      </trkpt>
      <trkpt lat="47.35404" lon="0.01555">
        <ele>72</ele>
        <time>2023-10-10T17:08:26Z</time>
      </trkpt>
      <trkpt lat="47.3542" lon="0.01651">
        <ele>73</ele>
        <time>2023-10-10T17:08:42Z</time>
      </trkpt>
      <trkpt lat="47.35439" lon="0.01717">
        <ele>73.7</ele>
        <time>2023-10-10T17:08:53Z</time>
      </trkpt>
      <trkpt lat="47.35451" lon="0.01775">
        <ele>74.9</ele>
        <time>2023-10-10T17:09:03Z</time>
      </trkpt>
      <trkpt lat="47.35462" lon="0.01813">
        <ele>75.6</ele>
        <time>2023-10-10T17:09:09Z</time>
      </trkpt>
      <trkpt lat="47.35485" lon="0.01936">
        <ele>77</ele>
        <time>2023-10-10T17:09:29Z</time>
      </trkpt>
      <trkpt lat="47.35494" lon="0.0198">
        <ele>77.8</ele>
        <time>2023-10-10T17:09:37Z</time>
      </trkpt>
      <trkpt lat="47.35498" lon="0.0199">
        <ele>77.9</ele>
        <time>2023-10-10T17:09:38Z</time>
      </trkpt>
      <trkpt lat="47.35505" lon="0.01994">
        <ele>78.1</ele>
        <time>2023-10-10T17:09:40Z</time>
      </trkpt>
      <trkpt lat="47.35521" lon="0.01985">
        <ele>78.3</ele>
        <time>2023-10-10T17:09:44Z</time>
      </trkpt>
      <trkpt lat="47.35534" lon="0.01987">
        <ele>78.8</ele>
        <time>2023-10-10T17:09:47Z</time>
      </trkpt>
      <trkpt lat="47.35547" lon="0.01982">
        <ele>79</ele>
        <time>2023-10-10T17:09:50Z</time>
      </trkpt>
      <trkpt lat="47.35556" lon="0.01975">
        <ele>79.1</ele>
        <time>2023-10-10T17:09:53Z</time>
      </trkpt>
      <trkpt lat="47.35606" lon="0.01958">
        <ele>81.6</ele>
        <time>2023-10-10T17:10:05Z</time>
      </trkpt>
      <trkpt lat="47.3562" lon="0.01961">
        <ele>82.3</ele>
        <time>2023-10-10T17:10:08Z</time>
      </trkpt>
      <trkpt lat="47.35625" lon="0.0196">
        <ele>82.5</ele>
        <time>2023-10-10T17:10:09Z</time>
      </trkpt>
      <trkpt lat="47.35637" lon="0.01966">
        <ele>82.9</ele>
        <time>2023-10-10T17:10:12Z</time>
      </trkpt>
      <trkpt lat="47.35651" lon="0.01967">
        <ele>83.4</ele>
        <time>2023-10-10T17:10:15Z</time>
      </trkpt>
      <trkpt lat="47.35656" lon="0.0197">
        <ele>83.6</ele>
        <time>2023-10-10T17:10:17Z</time>
      </trkpt>
      <trkpt lat="47.35699" lon="0.01969">
        <ele>86.2</ele>
        <time>2023-10-10T17:10:27Z</time>
      </trkpt>
      <trkpt lat="47.35711" lon="0.01964">
        <ele>86.8</ele>
        <time>2023-10-10T17:10:30Z</time>
      </trkpt>
      <trkpt lat="47.35721" lon="0.01964">
        <ele>87.2</ele>
        <time>2023-10-10T17:10:32Z</time>
      </trkpt>
      <trkpt lat="47.35738" lon="0.0197">
        <ele>88.2</ele>
        <time>2023-10-10T17:10:36Z</time>
      </trkpt>
      <trkpt lat="47.3575" lon="0.01968">
        <ele>89.2</ele>
        <time>2023-10-10T17:10:39Z</time>
      </trkpt>
      <trkpt lat="47.35756" lon="0.01971">
        <ele>89.5</ele>
        <time>2023-10-10T17:10:40Z</time>
      </trkpt>
      <trkpt lat="47.35796" lon="0.01967">
        <ele>92.7</ele>
        <time>2023-10-10T17:10:50Z</time>
      </trkpt>
      <trkpt lat="47.35805" lon="0.01969">
        <ele>93.2</ele>
        <time>2023-10-10T17:10:52Z</time>
      </trkpt>
      <trkpt lat="47.3582" lon="0.01966">
        <ele>94.5</ele>
        <time>2023-10-10T17:10:55Z</time>
      </trkpt>
      <trkpt lat="47.35838" lon="0.01971">
        <ele>95.3</ele>
        <time>2023-10-10T17:11:00Z</time>
      </trkpt>
      <trkpt lat="47.35847" lon="0.01969">
        <ele>95.7</ele>
        <time>2023-10-10T17:11:02Z</time>
      </trkpt>
      <trkpt lat="47.35865" lon="0.01976">
        <ele>96</ele>
        <time>2023-10-10T17:11:06Z</time>
      </trkpt>
      <trkpt lat="47.35895" lon="0.0197">
        <ele>97.3</ele>
        <time>2023-10-10T17:11:13Z</time>
      </trkpt>
      <trkpt lat="47.35901" lon="0.01977">
        <ele>97.2</ele>
        <time>2023-10-10T17:11:15Z</time>
      </trkpt>
      <trkpt lat="47.35907" lon="0.01978">
        <ele>97.3</ele>
        <time>2023-10-10T17:11:16Z</time>
      </trkpt>
      <trkpt lat="47.3592" lon="0.01973">
        <ele>97.9</ele>
        <time>2023-10-10T17:11:19Z</time>
      </trkpt>
      <trkpt lat="47.35948" lon="0.01974">
        <ele>98.1</ele>
        <time>2023-10-10T17:11:26Z</time>
      </trkpt>
      <trkpt lat="47.35955" lon="0.01991">
        <ele>97.7</ele>
        <time>2023-10-10T17:11:29Z</time>
      </trkpt>
      <trkpt lat="47.35955" lon="0.02003">
        <ele>97.3</ele>
        <time>2023-10-10T17:11:31Z</time>
      </trkpt>
      <trkpt lat="47.35961" lon="0.02025">
        <ele>96.7</ele>
        <time>2023-10-10T17:11:35Z</time>
      </trkpt>
      <trkpt lat="47.35961" lon="0.02054">
        <ele>94.7</ele>
        <time>2023-10-10T17:11:39Z</time>
      </trkpt>
      <trkpt lat="47.35958" lon="0.02067">
        <ele>94.3</ele>
        <time>2023-10-10T17:11:42Z</time>
      </trkpt>
      <trkpt lat="47.35964" lon="0.02091">
        <ele>94.4</ele>
        <time>2023-10-10T17:11:46Z</time>
      </trkpt>
      <trkpt lat="47.35985" lon="0.02108">
        <ele>95.9</ele>
        <time>2023-10-10T17:11:51Z</time>
      </trkpt>
      <trkpt lat="47.35995" lon="0.02111">
        <ele>96.6</ele>
        <time>2023-10-10T17:11:54Z</time>
      </trkpt>
      <trkpt lat="47.36006" lon="0.02133">
        <ele>98</ele>
        <time>2023-10-10T17:11:58Z</time>
      </trkpt>
      <trkpt lat="47.36023" lon="0.02154">
        <ele>99.5</ele>
        <time>2023-10-10T17:12:03Z</time>
      </trkpt>
      <trkpt lat="47.36037" lon="0.02157">
        <ele>100</ele>
        <time>2023-10-10T17:12:06Z</time>
      </trkpt>
      <trkpt lat="47.36042" lon="0.02161">
        <ele>100.3</ele>
        <time>2023-10-10T17:12:08Z</time>
      </trkpt>
      <trkpt lat="47.36051" lon="0.0218">
        <ele>101.4</ele>
        <time>2023-10-10T17:12:11Z</time>
      </trkpt>
      <trkpt lat="47.36065" lon="0.02198">
        <ele>102.4</ele>
        <time>2023-10-10T17:12:16Z</time>
      </trkpt>
      <trkpt lat="47.36078" lon="0.02207">
        <ele>102.9</ele>
        <time>2023-10-10T17:12:19Z</time>
      </trkpt>
      <trkpt lat="47.36084" lon="0.02196">
        <ele>103</ele>
        <time>2023-10-10T17:12:21Z</time>
      </trkpt>
      <trkpt lat="47.36084" lon="0.0216">
        <ele>101.8</ele>
        <time>2023-10-10T17:12:27Z</time>
      </trkpt>
      <trkpt lat="47.3609" lon="0.02132">
        <ele>101.4</ele>
        <time>2023-10-10T17:12:32Z</time>
      </trkpt>
      <trkpt lat="47.36094" lon="0.02091">
        <ele>101.4</ele>
        <time>2023-10-10T17:12:38Z</time>
      </trkpt>
      <trkpt lat="47.361" lon="0.02069">
        <ele>101.6</ele>
        <time>2023-10-10T17:12:42Z</time>
      </trkpt>
      <trkpt lat="47.361" lon="0.02048">
        <ele>101.8</ele>
        <time>2023-10-10T17:12:45Z</time>
      </trkpt>
      <trkpt lat="47.36105" lon="0.02034">
        <ele>102.4</ele>
        <time>2023-10-10T17:12:48Z</time>
      </trkpt>
      <trkpt lat="47.36107" lon="0.02008">
        <ele>102.8</ele>
        <time>2023-10-10T17:12:52Z</time>
      </trkpt>
      <trkpt lat="47.36113" lon="0.02">
        <ele>103.1</ele>
        <time>2023-10-10T17:12:54Z</time>
      </trkpt>
      <trkpt lat="47.36118" lon="0.01985">
        <ele>103.2</ele>
        <time>2023-10-10T17:12:56Z</time>
      </trkpt>
      <trkpt lat="47.36145" lon="0.01961">
        <ele>104.2</ele>
        <time>2023-10-10T17:13:04Z</time>
      </trkpt>
      <trkpt lat="47.36162" lon="0.01951">
        <ele>104.8</ele>
        <time>2023-10-10T17:13:08Z</time>
      </trkpt>
      <trkpt lat="47.36184" lon="0.01944">
        <ele>105</ele>
        <time>2023-10-10T17:13:13Z</time>
      </trkpt>
      <trkpt lat="47.36208" lon="0.01945">
        <ele>105</ele>
        <time>2023-10-10T17:13:19Z</time>
      </trkpt>
      <trkpt lat="47.36252" lon="0.01939">
        <ele>104.8</ele>
        <time>2023-10-10T17:13:29Z</time>
      </trkpt>
      <trkpt lat="47.36298" lon="0.01943">
        <ele>103.5</ele>
        <time>2023-10-10T17:13:40Z</time>
      </trkpt>
      <trkpt lat="47.36316" lon="0.01942">
        <ele>102.2</ele>
        <time>2023-10-10T17:13:44Z</time>
      </trkpt>
      <trkpt lat="47.36346" lon="0.01934">
        <ele>100.1</ele>
        <time>2023-10-10T17:13:51Z</time>
      </trkpt>
      <trkpt lat="47.3637" lon="0.01937">
        <ele>98.4</ele>
        <time>2023-10-10T17:13:57Z</time>
      </trkpt>
      <trkpt lat="47.36402" lon="0.01935">
        <ele>96.1</ele>
        <time>2023-10-10T17:14:04Z</time>
      </trkpt>
      <trkpt lat="47.36442" lon="0.01926">
        <ele>93.5</ele>
        <time>2023-10-10T17:14:14Z</time>
      </trkpt>
      <trkpt lat="47.36451" lon="0.01935">
        <ele>93.3</ele>
        <time>2023-10-10T17:14:16Z</time>
      </trkpt>
      <trkpt lat="47.36449" lon="0.01967">
        <ele>94.6</ele>
        <time>2023-10-10T17:14:22Z</time>
      </trkpt>
      <trkpt lat="47.36438" lon="0.02028">
        <ele>98.3</ele>
        <time>2023-10-10T17:14:32Z</time>
      </trkpt>
      <trkpt lat="47.36429" lon="0.02064">
        <ele>101.6</ele>
        <time>2023-10-10T17:14:38Z</time>
      </trkpt>
      <trkpt lat="47.36425" lon="0.02072">
        <ele>102.2</ele>
        <time>2023-10-10T17:14:39Z</time>
      </trkpt>
      <trkpt lat="47.36425" lon="0.02084">
        <ele>103</ele>
        <time>2023-10-10T17:14:41Z</time>
      </trkpt>
      <trkpt lat="47.36411" lon="0.02116">
        <ele>105.5</ele>
        <time>2023-10-10T17:14:47Z</time>
      </trkpt>
      <trkpt lat="47.36406" lon="0.02119">
        <ele>105.8</ele>
        <time>2023-10-10T17:14:48Z</time>
      </trkpt>
      <trkpt lat="47.36395" lon="0.02111">
        <ele>105.8</ele>
        <time>2023-10-10T17:14:51Z</time>
      </trkpt>
      <trkpt lat="47.36391" lon="0.02116">
        <ele>106.1</ele>
        <time>2023-10-10T17:14:52Z</time>
      </trkpt>
      <trkpt lat="47.36364" lon="0.0219">
        <ele>109</ele>
        <time>2023-10-10T17:15:06Z</time>
      </trkpt>
      <trkpt lat="47.36359" lon="0.02217">
        <ele>109.8</ele>
        <time>2023-10-10T17:15:10Z</time>
      </trkpt>
      <trkpt lat="47.36348" lon="0.0225">
        <ele>110</ele>
        <time>2023-10-10T17:15:16Z</time>
      </trkpt>
      <trkpt lat="47.36348" lon="0.02257">
        <ele>110</ele>
        <time>2023-10-10T17:15:17Z</time>
      </trkpt>
      <trkpt lat="47.36353" lon="0.02282">
        <ele>110</ele>
        <time>2023-10-10T17:15:21Z</time>
      </trkpt>
      <trkpt lat="47.36362" lon="0.02297">
        <ele>110</ele>
        <time>2023-10-10T17:15:24Z</time>
      </trkpt>
      <trkpt lat="47.36369" lon="0.02304">
        <ele>110</ele>
        <time>2023-10-10T17:15:26Z</time>
      </trkpt>
      <trkpt lat="47.36393" lon="0.02319">
        <ele>109.4</ele>
        <time>2023-10-10T17:15:32Z</time>
      </trkpt>
      <trkpt lat="47.3644" lon="0.02354">
        <ele>108.2</ele>
        <time>2023-10-10T17:15:45Z</time>
      </trkpt>
      <trkpt lat="47.36446" lon="0.02362">
        <ele>107.9</ele>
        <time>2023-10-10T17:15:47Z</time>
      </trkpt>
      <trkpt lat="47.3646" lon="0.02372">
        <ele>107.4</ele>
        <time>2023-10-10T17:15:50Z</time>
      </trkpt>
      <trkpt lat="47.36471" lon="0.02376">
        <ele>107</ele>
        <time>2023-10-10T17:15:53Z</time>
      </trkpt>
      <trkpt lat="47.36494" lon="0.02392">
        <ele>105.4</ele>
        <time>2023-10-10T17:15:59Z</time>
      </trkpt>
      <trkpt lat="47.36502" lon="0.02408">
        <ele>104.9</ele>
        <time>2023-10-10T17:16:02Z</time>
      </trkpt>
      <trkpt lat="47.36516" lon="0.02408">
        <ele>104.2</ele>
        <time>2023-10-10T17:16:05Z</time>
      </trkpt>
      <trkpt lat="47.36522" lon="0.02435">
        <ele>104.2</ele>
        <time>2023-10-10T17:16:10Z</time>
      </trkpt>
      <trkpt lat="47.36525" lon="0.02496">
        <ele>103.1</ele>
        <time>2023-10-10T17:16:19Z</time>
      </trkpt>
      <trkpt lat="47.36535" lon="0.02509">
        <ele>102.5</ele>
        <time>2023-10-10T17:16:23Z</time>
      </trkpt>
      <trkpt lat="47.36551" lon="0.02508">
        <ele>102.1</ele>
        <time>2023-10-10T17:16:26Z</time>
      </trkpt>
      <trkpt lat="47.36565" lon="0.02501">
        <ele>102</ele>
        <time>2023-10-10T17:16:30Z</time>
      </trkpt>
      <trkpt lat="47.36598" lon="0.02511">
        <ele>102</ele>
        <time>2023-10-10T17:16:38Z</time>
      </trkpt>
      <trkpt lat="47.36621" lon="0.02508">
        <ele>102.1</ele>
        <time>2023-10-10T17:16:43Z</time>
      </trkpt>
      <trkpt lat="47.36631" lon="0.02513">
        <ele>102.3</ele>
        <time>2023-10-10T17:16:45Z</time>
      </trkpt>
      <trkpt lat="47.36634" lon="0.02512">
        <ele>102.4</ele>
        <time>2023-10-10T17:16:46Z</time>
      </trkpt>
      <trkpt lat="47.36642" lon="0.02516">
        <ele>102.6</ele>
        <time>2023-10-10T17:16:48Z</time>
      </trkpt>
      <trkpt lat="47.36648" lon="0.02516">
        <ele>102.7</ele>
        <time>2023-10-10T17:16:50Z</time>
      </trkpt>
      <trkpt lat="47.36663" lon="0.02524">
        <ele>103</ele>
        <time>2023-10-10T17:16:53Z</time>
      </trkpt>
      <trkpt lat="47.3667" lon="0.0252">
        <ele>102.9</ele>
        <time>2023-10-10T17:16:55Z</time>
      </trkpt>
      <trkpt lat="47.3669" lon="0.0252">
        <ele>102.2</ele>
        <time>2023-10-10T17:17:00Z</time>
      </trkpt>
      <trkpt lat="47.3671" lon="0.02511">
        <ele>100.9</ele>
        <time>2023-10-10T17:17:05Z</time>
      </trkpt>
      <trkpt lat="47.3672" lon="0.02516">
        <ele>100.2</ele>
        <time>2023-10-10T17:17:07Z</time>
      </trkpt>
      <trkpt lat="47.36726" lon="0.02514">
        <ele>99.6</ele>
        <time>2023-10-10T17:17:08Z</time>
      </trkpt>
      <trkpt lat="47.3674" lon="0.02516">
        <ele>98.1</ele>
        <time>2023-10-10T17:17:12Z</time>
      </trkpt>
      <trkpt lat="47.36755" lon="0.02511">
        <ele>96.5</ele>
        <time>2023-10-10T17:17:15Z</time>
      </trkpt>
      <trkpt lat="47.36759" lon="0.02514">
        <ele>96.2</ele>
        <time>2023-10-10T17:17:16Z</time>
      </trkpt>
      <trkpt lat="47.36764" lon="0.0251">
        <ele>95.7</ele>
        <time>2023-10-10T17:17:18Z</time>
      </trkpt>
      <trkpt lat="47.36765" lon="0.02504">
        <ele>95.5</ele>
        <time>2023-10-10T17:17:19Z</time>
      </trkpt>
      <trkpt lat="47.36762" lon="0.025">
        <ele>95.7</ele>
        <time>2023-10-10T17:17:20Z</time>
      </trkpt>
      <trkpt lat="47.36767" lon="0.02496">
        <ele>94.9</ele>
        <time>2023-10-10T17:17:21Z</time>
      </trkpt>
      <trkpt lat="47.36774" lon="0.02503">
        <ele>94.5</ele>
        <time>2023-10-10T17:17:23Z</time>
      </trkpt>
      <trkpt lat="47.36777" lon="0.02512">
        <ele>94.5</ele>
        <time>2023-10-10T17:17:25Z</time>
      </trkpt>
      <trkpt lat="47.3678" lon="0.02512">
        <ele>94.1</ele>
        <time>2023-10-10T17:17:25Z</time>
      </trkpt>
      <trkpt lat="47.36797" lon="0.02491">
        <ele>90.8</ele>
        <time>2023-10-10T17:17:30Z</time>
      </trkpt>
      <trkpt lat="47.3682" lon="0.02481">
        <ele>87.2</ele>
        <time>2023-10-10T17:17:36Z</time>
      </trkpt>
      <trkpt lat="47.36821" lon="0.02476">
        <ele>86.9</ele>
        <time>2023-10-10T17:17:37Z</time>
      </trkpt>
      <trkpt lat="47.36817" lon="0.02458">
        <ele>86.8</ele>
        <time>2023-10-10T17:17:40Z</time>
      </trkpt>
      <trkpt lat="47.36807" lon="0.0244">
        <ele>87.5</ele>
        <time>2023-10-10T17:17:44Z</time>
      </trkpt>
      <trkpt lat="47.36767" lon="0.02386">
        <ele>88</ele>
        <time>2023-10-10T17:17:56Z</time>
      </trkpt>
      <trkpt lat="47.36753" lon="0.02355">
        <ele>87.3</ele>
        <time>2023-10-10T17:18:02Z</time>
      </trkpt>
      <trkpt lat="47.3673" lon="0.0233">
        <ele>87.2</ele>
        <time>2023-10-10T17:18:09Z</time>
      </trkpt>
      <trkpt lat="47.36721" lon="0.02308">
        <ele>86.3</ele>
        <time>2023-10-10T17:18:13Z</time>
      </trkpt>
      <trkpt lat="47.36721" lon="0.02285">
        <ele>85.3</ele>
        <time>2023-10-10T17:18:16Z</time>
      </trkpt>
      <trkpt lat="47.36726" lon="0.02266">
        <ele>84.3</ele>
        <time>2023-10-10T17:18:20Z</time>
      </trkpt>
      <trkpt lat="47.36719" lon="0.02243">
        <ele>83.9</ele>
        <time>2023-10-10T17:18:24Z</time>
      </trkpt>
      <trkpt lat="47.36726" lon="0.02218">
        <ele>82.9</ele>
        <time>2023-10-10T17:18:28Z</time>
      </trkpt>
      <trkpt lat="47.36724" lon="0.02203">
        <ele>82.9</ele>
        <time>2023-10-10T17:18:30Z</time>
      </trkpt>
      <trkpt lat="47.3673" lon="0.02191">
        <ele>82.8</ele>
        <time>2023-10-10T17:18:33Z</time>
      </trkpt>
      <trkpt lat="47.36738" lon="0.02184">
        <ele>82.6</ele>
        <time>2023-10-10T17:18:35Z</time>
      </trkpt>
      <trkpt lat="47.36754" lon="0.02195">
        <ele>81.7</ele>
        <time>2023-10-10T17:18:39Z</time>
      </trkpt>
      <trkpt lat="47.36788" lon="0.02249">
        <ele>80.6</ele>
        <time>2023-10-10T17:18:51Z</time>
      </trkpt>
      <trkpt lat="47.368" lon="0.02256">
        <ele>80.4</ele>
        <time>2023-10-10T17:18:54Z</time>
      </trkpt>
      <trkpt lat="47.36822" lon="0.02282">
        <ele>80.6</ele>
        <time>2023-10-10T17:19:00Z</time>
      </trkpt>
      <trkpt lat="47.36833" lon="0.02288">
        <ele>80.4</ele>
        <time>2023-10-10T17:19:03Z</time>
      </trkpt>
      <trkpt lat="47.36847" lon="0.02286">
        <ele>79.7</ele>
        <time>2023-10-10T17:19:06Z</time>
      </trkpt>
      <trkpt lat="47.36851" lon="0.02289">
        <ele>79.5</ele>
        <time>2023-10-10T17:19:07Z</time>
      </trkpt>
      <trkpt lat="47.3687" lon="0.02317">
        <ele>78.8</ele>
        <time>2023-10-10T17:19:14Z</time>
      </trkpt>
      <trkpt lat="47.36921" lon="0.0237">
        <ele>77.1</ele>
        <time>2023-10-10T17:19:28Z</time>
      </trkpt>
      <trkpt lat="47.36934" lon="0.02386">
        <ele>76.7</ele>
        <time>2023-10-10T17:19:32Z</time>
      </trkpt>
      <trkpt lat="47.36937" lon="0.02394">
        <ele>76.5</ele>
        <time>2023-10-10T17:19:34Z</time>
      </trkpt>
      <trkpt lat="47.36937" lon="0.02411">
        <ele>76.5</ele>
        <time>2023-10-10T17:19:36Z</time>
      </trkpt>
      <trkpt lat="47.3692" lon="0.02527">
        <ele>76.9</ele>
        <time>2023-10-10T17:19:55Z</time>
      </trkpt>
      <trkpt lat="47.36918" lon="0.02562">
        <ele>77.2</ele>
        <time>2023-10-10T17:20:01Z</time>
      </trkpt>
      <trkpt lat="47.36902" lon="0.02669">
        <ele>79.1</ele>
        <time>2023-10-10T17:20:18Z</time>
      </trkpt>
      <trkpt lat="47.36889" lon="0.02725">
        <ele>79.9</ele>
        <time>2023-10-10T17:20:27Z</time>
      </trkpt>
      <trkpt lat="47.3688" lon="0.0274">
        <ele>80</ele>
        <time>2023-10-10T17:20:30Z</time>
      </trkpt>
      <trkpt lat="47.36868" lon="0.02773">
        <ele>80.5</ele>
        <time>2023-10-10T17:20:36Z</time>
      </trkpt>
      <trkpt lat="47.36859" lon="0.02821">
        <ele>80.2</ele>
        <time>2023-10-10T17:20:44Z</time>
      </trkpt>
      <trkpt lat="47.36855" lon="0.02867">
        <ele>81</ele>
        <time>2023-10-10T17:20:52Z</time>
      </trkpt>
      <trkpt lat="47.36856" lon="0.02879">
        <ele>81.1</ele>
        <time>2023-10-10T17:20:54Z</time>
      </trkpt>
      <trkpt lat="47.36853" lon="0.02901">
        <ele>81.6</ele>
        <time>2023-10-10T17:20:57Z</time>
      </trkpt>
      <trkpt lat="47.36856" lon="0.02931">
        <ele>82.5</ele>
        <time>2023-10-10T17:21:02Z</time>
      </trkpt>
      <trkpt lat="47.36852" lon="0.02969">
        <ele>83.9</ele>
        <time>2023-10-10T17:21:08Z</time>
      </trkpt>
      <trkpt lat="47.36865" lon="0.02999">
        <ele>85</ele>
        <time>2023-10-10T17:21:14Z</time>
      </trkpt>
      <trkpt lat="47.36866" lon="0.03018">
        <ele>86.3</ele>
        <time>2023-10-10T17:21:17Z</time>
      </trkpt>
      <trkpt lat="47.36873" lon="0.0305">
        <ele>87.8</ele>
        <time>2023-10-10T17:21:22Z</time>
      </trkpt>
      <trkpt lat="47.36864" lon="0.03082">
        <ele>89</ele>
        <time>2023-10-10T17:21:27Z</time>
      </trkpt>
      <trkpt lat="47.36864" lon="0.03092">
        <ele>89.6</ele>
        <time>2023-10-10T17:21:29Z</time>
      </trkpt>
      <trkpt lat="47.36869" lon="0.03104">
        <ele>90.3</ele>
        <time>2023-10-10T17:21:31Z</time>
      </trkpt>
      <trkpt lat="47.3687" lon="0.03158">
        <ele>92.6</ele>
        <time>2023-10-10T17:21:40Z</time>
      </trkpt>
      <trkpt lat="47.36863" lon="0.03197">
        <ele>95</ele>
        <time>2023-10-10T17:21:46Z</time>
      </trkpt>
      <trkpt lat="47.36866" lon="0.03224">
        <ele>95.9</ele>
        <time>2023-10-10T17:21:50Z</time>
      </trkpt>
      <trkpt lat="47.36859" lon="0.03249">
        <ele>97.1</ele>
        <time>2023-10-10T17:21:55Z</time>
      </trkpt>
      <trkpt lat="47.36862" lon="0.03255">
        <ele>97.4</ele>
        <time>2023-10-10T17:21:56Z</time>
      </trkpt>
      <trkpt lat="47.36861" lon="0.03289">
        <ele>99.4</ele>
        <time>2023-10-10T17:22:01Z</time>
      </trkpt>
      <trkpt lat="47.36874" lon="0.03291">
        <ele>99</ele>
        <time>2023-10-10T17:22:04Z</time>
      </trkpt>
      <trkpt lat="47.36887" lon="0.03284">
        <ele>98.3</ele>
        <time>2023-10-10T17:22:08Z</time>
      </trkpt>
      <trkpt lat="47.36892" lon="0.03278">
        <ele>98</ele>
        <time>2023-10-10T17:22:09Z</time>
      </trkpt>
      <trkpt lat="47.36898" lon="0.03261">
        <ele>97.2</ele>
        <time>2023-10-10T17:22:12Z</time>
      </trkpt>
      <trkpt lat="47.36906" lon="0.03209">
        <ele>94.5</ele>
        <time>2023-10-10T17:22:21Z</time>
      </trkpt>
      <trkpt lat="47.36906" lon="0.03186">
        <ele>93.5</ele>
        <time>2023-10-10T17:22:24Z</time>
      </trkpt>
      <trkpt lat="47.36923" lon="0.03134">
        <ele>90.8</ele>
        <time>2023-10-10T17:22:33Z</time>
      </trkpt>
      <trkpt lat="47.36938" lon="0.03058">
        <ele>87.1</ele>
        <time>2023-10-10T17:22:46Z</time>
      </trkpt>
      <trkpt lat="47.36935" lon="0.03046">
        <ele>86.7</ele>
        <time>2023-10-10T17:22:48Z</time>
      </trkpt>
      <trkpt lat="47.36929" lon="0.03036">
        <ele>86.3</ele>
        <time>2023-10-10T17:22:50Z</time>
      </trkpt>
      <trkpt lat="47.36931" lon="0.03025">
        <ele>85.9</ele>
        <time>2023-10-10T17:22:52Z</time>
      </trkpt>
      <trkpt lat="47.36964" lon="0.02974">
        <ele>84.1</ele>
        <time>2023-10-10T17:23:03Z</time>
      </trkpt>
      <trkpt lat="47.36972" lon="0.02948">
        <ele>83.1</ele>
        <time>2023-10-10T17:23:07Z</time>
      </trkpt>
      <trkpt lat="47.36983" lon="0.02925">
        <ele>82.3</ele>
        <time>2023-10-10T17:23:12Z</time>
      </trkpt>
      <trkpt lat="47.37005" lon="0.02866">
        <ele>80.3</ele>
        <time>2023-10-10T17:23:23Z</time>
      </trkpt>
      <trkpt lat="47.37018" lon="0.02841">
        <ele>80.2</ele>
        <time>2023-10-10T17:23:28Z</time>
      </trkpt>
      <trkpt lat="47.37024" lon="0.02837">
        <ele>80.1</ele>
        <time>2023-10-10T17:23:29Z</time>
      </trkpt>
      <trkpt lat="47.37025" lon="0.02839">
        <ele>80.2</ele>
        <time>2023-10-10T17:23:29Z</time>
      </trkpt>
      <trkpt lat="47.37024" lon="0.02864">
        <ele>80.9</ele>
        <time>2023-10-10T17:23:33Z</time>
      </trkpt>
      <trkpt lat="47.37026" lon="0.02883">
        <ele>81</ele>
        <time>2023-10-10T17:23:36Z</time>
      </trkpt>
      <trkpt lat="47.37022" lon="0.02906">
        <ele>81.6</ele>
        <time>2023-10-10T17:23:40Z</time>
      </trkpt>
      <trkpt lat="47.37022" lon="0.02957">
        <ele>83.5</ele>
        <time>2023-10-10T17:23:48Z</time>
      </trkpt>
      <trkpt lat="47.37017" lon="0.02979">
        <ele>84.2</ele>
        <time>2023-10-10T17:23:52Z</time>
      </trkpt>
      <trkpt lat="47.37017" lon="0.03002">
        <ele>85.1</ele>
        <time>2023-10-10T17:23:56Z</time>
      </trkpt>
      <trkpt lat="47.37011" lon="0.03029">
        <ele>86.1</ele>
        <time>2023-10-10T17:24:00Z</time>
      </trkpt>
      <trkpt lat="47.37021" lon="0.03087">
        <ele>89.1</ele>
        <time>2023-10-10T17:24:10Z</time>
      </trkpt>
      <trkpt lat="47.37018" lon="0.03105">
        <ele>89.8</ele>
        <time>2023-10-10T17:24:12Z</time>
      </trkpt>
      <trkpt lat="47.37012" lon="0.03118">
        <ele>90.5</ele>
        <time>2023-10-10T17:24:15Z</time>
      </trkpt>
      <trkpt lat="47.37015" lon="0.03127">
        <ele>91.1</ele>
        <time>2023-10-10T17:24:17Z</time>
      </trkpt>
      <trkpt lat="47.3701" lon="0.03176">
        <ele>93.6</ele>
        <time>2023-10-10T17:24:24Z</time>
      </trkpt>
      <trkpt lat="47.37017" lon="0.03188">
        <ele>94.1</ele>
        <time>2023-10-10T17:24:27Z</time>
      </trkpt>
      <trkpt lat="47.3703" lon="0.03194">
        <ele>93.9</ele>
        <time>2023-10-10T17:24:30Z</time>
      </trkpt>
      <trkpt lat="47.37071" lon="0.03197">
        <ele>92.5</ele>
        <time>2023-10-10T17:24:40Z</time>
      </trkpt>
      <trkpt lat="47.37076" lon="0.03189">
        <ele>92.3</ele>
        <time>2023-10-10T17:24:41Z</time>
      </trkpt>
      <trkpt lat="47.37084" lon="0.03163">
        <ele>91.8</ele>
        <time>2023-10-10T17:24:46Z</time>
      </trkpt>
      <trkpt lat="47.37084" lon="0.03122">
        <ele>89.8</ele>
        <time>2023-10-10T17:24:52Z</time>
      </trkpt>
      <trkpt lat="47.3709" lon="0.031">
        <ele>88.4</ele>
        <time>2023-10-10T17:24:56Z</time>
      </trkpt>
      <trkpt lat="47.37087" lon="0.03082">
        <ele>87.8</ele>
        <time>2023-10-10T17:24:59Z</time>
      </trkpt>
      <trkpt lat="47.37089" lon="0.03071">
        <ele>87.4</ele>
        <time>2023-10-10T17:25:01Z</time>
      </trkpt>
      <trkpt lat="47.37085" lon="0.0303">
        <ele>85.1</ele>
        <time>2023-10-10T17:25:07Z</time>
      </trkpt>
      <trkpt lat="47.37086" lon="0.03015">
        <ele>84.4</ele>
        <time>2023-10-10T17:25:10Z</time>
      </trkpt>
      <trkpt lat="47.37093" lon="0.02988">
        <ele>83.4</ele>
        <time>2023-10-10T17:25:14Z</time>
      </trkpt>
      <trkpt lat="47.37087" lon="0.02955">
        <ele>82.4</ele>
        <time>2023-10-10T17:25:20Z</time>
      </trkpt>
      <trkpt lat="47.37091" lon="0.02933">
        <ele>81.9</ele>
        <time>2023-10-10T17:25:23Z</time>
      </trkpt>
      <trkpt lat="47.37092" lon="0.02909">
        <ele>81.4</ele>
        <time>2023-10-10T17:25:27Z</time>
      </trkpt>
      <trkpt lat="47.37097" lon="0.02895">
        <ele>80.7</ele>
        <time>2023-10-10T17:25:30Z</time>
      </trkpt>
      <trkpt lat="47.37095" lon="0.02884">
        <ele>80.5</ele>
        <time>2023-10-10T17:25:31Z</time>
      </trkpt>
      <trkpt lat="47.37098" lon="0.02879">
        <ele>80.3</ele>
        <time>2023-10-10T17:25:33Z</time>
      </trkpt>
      <trkpt lat="47.37102" lon="0.02893">
        <ele>80.5</ele>
        <time>2023-10-10T17:25:35Z</time>
      </trkpt>
      <trkpt lat="47.37113" lon="0.02906">
        <ele>80.6</ele>
        <time>2023-10-10T17:25:38Z</time>
      </trkpt>
      <trkpt lat="47.37137" lon="0.02945">
        <ele>81.1</ele>
        <time>2023-10-10T17:25:47Z</time>
      </trkpt>
      <trkpt lat="47.37166" lon="0.03013">
        <ele>82</ele>
        <time>2023-10-10T17:25:59Z</time>
      </trkpt>
      <trkpt lat="47.37172" lon="0.03022">
        <ele>81.8</ele>
        <time>2023-10-10T17:26:01Z</time>
      </trkpt>
      <trkpt lat="47.37181" lon="0.03028">
        <ele>81.5</ele>
        <time>2023-10-10T17:26:04Z</time>
      </trkpt>
      <trkpt lat="47.372" lon="0.03031">
        <ele>81.1</ele>
        <time>2023-10-10T17:26:08Z</time>
      </trkpt>
      <trkpt lat="47.37226" lon="0.03028">
        <ele>80.9</ele>
        <time>2023-10-10T17:26:14Z</time>
      </trkpt>
      <trkpt lat="47.37245" lon="0.03022">
        <ele>80</ele>
        <time>2023-10-10T17:26:19Z</time>
      </trkpt>
      <trkpt lat="47.37262" lon="0.03021">
        <ele>79.8</ele>
        <time>2023-10-10T17:26:23Z</time>
      </trkpt>
      <trkpt lat="47.37271" lon="0.03017">
        <ele>79.6</ele>
        <time>2023-10-10T17:26:25Z</time>
      </trkpt>
      <trkpt lat="47.37295" lon="0.03015">
        <ele>79.2</ele>
        <time>2023-10-10T17:26:30Z</time>
      </trkpt>
      <trkpt lat="47.37317" lon="0.03009">
        <ele>79</ele>
        <time>2023-10-10T17:26:36Z</time>
      </trkpt>
      <trkpt lat="47.37349" lon="0.03011">
        <ele>79</ele>
        <time>2023-10-10T17:26:43Z</time>
      </trkpt>
      <trkpt lat="47.37354" lon="0.03005">
        <ele>79</ele>
        <time>2023-10-10T17:26:45Z</time>
      </trkpt>
      <trkpt lat="47.37357" lon="0.02995">
        <ele>78.8</ele>
        <time>2023-10-10T17:26:46Z</time>
      </trkpt>
      <trkpt lat="47.37359" lon="0.02977">
        <ele>78.2</ele>
        <time>2023-10-10T17:26:49Z</time>
      </trkpt>
      <trkpt lat="47.37373" lon="0.02914">
        <ele>77</ele>
        <time>2023-10-10T17:27:00Z</time>
      </trkpt>
      <trkpt lat="47.3738" lon="0.02863">
        <ele>76.7</ele>
        <time>2023-10-10T17:27:08Z</time>
      </trkpt>
      <trkpt lat="47.37385" lon="0.02851">
        <ele>76.5</ele>
        <time>2023-10-10T17:27:10Z</time>
      </trkpt>
      <trkpt lat="47.37385" lon="0.02842">
        <ele>76.3</ele>
        <time>2023-10-10T17:27:12Z</time>
      </trkpt>
      <trkpt lat="47.37395" lon="0.02816">
        <ele>76</ele>
        <time>2023-10-10T17:27:16Z</time>
      </trkpt>
      <trkpt lat="47.3741" lon="0.02787">
        <ele>75.5</ele>
        <time>2023-10-10T17:27:22Z</time>
      </trkpt>
      <trkpt lat="47.37411" lon="0.02771">
        <ele>75.2</ele>
        <time>2023-10-10T17:27:25Z</time>
      </trkpt>
      <trkpt lat="47.37415" lon="0.02757">
        <ele>75</ele>
        <time>2023-10-10T17:27:27Z</time>
      </trkpt>
      <trkpt lat="47.37415" lon="0.02728">
        <ele>75</ele>
        <time>2023-10-10T17:27:32Z</time>
      </trkpt>
      <trkpt lat="47.37418" lon="0.02708">
        <ele>74.5</ele>
        <time>2023-10-10T17:27:35Z</time>
      </trkpt>
      <trkpt lat="47.37427" lon="0.02674">
        <ele>74</ele>
        <time>2023-10-10T17:27:41Z</time>
      </trkpt>
      <trkpt lat="47.37433" lon="0.02633">
        <ele>73.4</ele>
        <time>2023-10-10T17:27:47Z</time>
      </trkpt>
      <trkpt lat="47.37441" lon="0.02619">
        <ele>73.1</ele>
        <time>2023-10-10T17:27:50Z</time>
      </trkpt>
      <trkpt lat="47.37454" lon="0.02606">
        <ele>73</ele>
        <time>2023-10-10T17:27:54Z</time>
      </trkpt>
      <trkpt lat="47.37517" lon="0.02579">
        <ele>72</ele>
        <time>2023-10-10T17:28:09Z</time>
      </trkpt>
      <trkpt lat="47.3754" lon="0.02567">
        <ele>71.6</ele>
        <time>2023-10-10T17:28:15Z</time>
      </trkpt>
      <trkpt lat="47.37566" lon="0.02549">
        <ele>70.6</ele>
        <time>2023-10-10T17:28:22Z</time>
      </trkpt>
      <trkpt lat="47.37595" lon="0.0252">
        <ele>69</ele>
        <time>2023-10-10T17:28:30Z</time>
      </trkpt>
      <trkpt lat="47.37642" lon="0.02481">
        <ele>67.1</ele>
        <time>2023-10-10T17:28:42Z</time>
      </trkpt>
      <trkpt lat="47.37671" lon="0.02449">
        <ele>67.3</ele>
        <time>2023-10-10T17:28:51Z</time>
      </trkpt>
      <trkpt lat="47.37676" lon="0.02449">
        <ele>67.5</ele>
        <time>2023-10-10T17:28:52Z</time>
      </trkpt>
      <trkpt lat="47.37679" lon="0.02455">
        <ele>67.8</ele>
        <time>2023-10-10T17:28:53Z</time>
      </trkpt>
      <trkpt lat="47.3768" lon="0.02478">
        <ele>68.7</ele>
        <time>2023-10-10T17:28:57Z</time>
      </trkpt>
      <trkpt lat="47.37674" lon="0.02569">
        <ele>71.7</ele>
        <time>2023-10-10T17:29:11Z</time>
      </trkpt>
      <trkpt lat="47.3767" lon="0.02586">
        <ele>72.2</ele>
        <time>2023-10-10T17:29:14Z</time>
      </trkpt>
      <trkpt lat="47.37642" lon="0.02655">
        <ele>71.9</ele>
        <time>2023-10-10T17:29:27Z</time>
      </trkpt>
      <trkpt lat="47.3764" lon="0.02673">
        <ele>72.3</ele>
        <time>2023-10-10T17:29:30Z</time>
      </trkpt>
      <trkpt lat="47.37642" lon="0.02682">
        <ele>72.8</ele>
        <time>2023-10-10T17:29:31Z</time>
      </trkpt>
      <trkpt lat="47.37636" lon="0.027">
        <ele>72.7</ele>
        <time>2023-10-10T17:29:34Z</time>
      </trkpt>
      <trkpt lat="47.37644" lon="0.02732">
        <ele>73.4</ele>
        <time>2023-10-10T17:29:40Z</time>
      </trkpt>
      <trkpt lat="47.37634" lon="0.02776">
        <ele>72.6</ele>
        <time>2023-10-10T17:29:47Z</time>
      </trkpt>
      <trkpt lat="47.37634" lon="0.02793">
        <ele>72.6</ele>
        <time>2023-10-10T17:29:50Z</time>
      </trkpt>
      <trkpt lat="47.37628" lon="0.02809">
        <ele>72.1</ele>
        <time>2023-10-10T17:29:53Z</time>
      </trkpt>
      <trkpt lat="47.37628" lon="0.0282">
        <ele>71.9</ele>
        <time>2023-10-10T17:29:54Z</time>
      </trkpt>
      <trkpt lat="47.3765" lon="0.02856">
        <ele>72.5</ele>
        <time>2023-10-10T17:30:02Z</time>
      </trkpt>
      <trkpt lat="47.37675" lon="0.02879">
        <ele>73.1</ele>
        <time>2023-10-10T17:30:09Z</time>
      </trkpt>
      <trkpt lat="47.37696" lon="0.02909">
        <ele>73.1</ele>
        <time>2023-10-10T17:30:16Z</time>
      </trkpt>
      <trkpt lat="47.37705" lon="0.02938">
        <ele>73.4</ele>
        <time>2023-10-10T17:30:21Z</time>
      </trkpt>
      <trkpt lat="47.37704" lon="0.02956">
        <ele>73.3</ele>
        <time>2023-10-10T17:30:24Z</time>
      </trkpt>
      <trkpt lat="47.37712" lon="0.02976">
        <ele>73.7</ele>
        <time>2023-10-10T17:30:27Z</time>
      </trkpt>
      <trkpt lat="47.3771" lon="0.03008">
        <ele>74.2</ele>
        <time>2023-10-10T17:30:32Z</time>
      </trkpt>
      <trkpt lat="47.37722" lon="0.03029">
        <ele>75</ele>
        <time>2023-10-10T17:30:37Z</time>
      </trkpt>
      <trkpt lat="47.37724" lon="0.03038">
        <ele>75.1</ele>
        <time>2023-10-10T17:30:38Z</time>
      </trkpt>
      <trkpt lat="47.37722" lon="0.03055">
        <ele>75</ele>
        <time>2023-10-10T17:30:41Z</time>
      </trkpt>
      <trkpt lat="47.37714" lon="0.03076">
        <ele>75</ele>
        <time>2023-10-10T17:30:45Z</time>
      </trkpt>
      <trkpt lat="47.37722" lon="0.03101">
        <ele>75</ele>
        <time>2023-10-10T17:30:49Z</time>
      </trkpt>
      <trkpt lat="47.37717" lon="0.03124">
        <ele>75.7</ele>
        <time>2023-10-10T17:30:53Z</time>
      </trkpt>
      <trkpt lat="47.37721" lon="0.03137">
        <ele>76</ele>
        <time>2023-10-10T17:30:55Z</time>
      </trkpt>
      <trkpt lat="47.3772" lon="0.03154">
        <ele>76.6</ele>
        <time>2023-10-10T17:30:58Z</time>
      </trkpt>
      <trkpt lat="47.3773" lon="0.03178">
        <ele>77.1</ele>
        <time>2023-10-10T17:31:02Z</time>
      </trkpt>
      <trkpt lat="47.37738" lon="0.03253">
        <ele>79</ele>
        <time>2023-10-10T17:31:14Z</time>
      </trkpt>
      <trkpt lat="47.37735" lon="0.03273">
        <ele>79</ele>
        <time>2023-10-10T17:31:18Z</time>
      </trkpt>
      <trkpt lat="47.37737" lon="0.03309">
        <ele>80</ele>
        <time>2023-10-10T17:31:23Z</time>
      </trkpt>
      <trkpt lat="47.37734" lon="0.03397">
        <ele>82.3</ele>
        <time>2023-10-10T17:31:37Z</time>
      </trkpt>
      <trkpt lat="47.37729" lon="0.03479">
        <ele>85.5</ele>
        <time>2023-10-10T17:31:50Z</time>
      </trkpt>
      <trkpt lat="47.37726" lon="0.03497">
        <ele>86.8</ele>
        <time>2023-10-10T17:31:53Z</time>
      </trkpt>
      <trkpt lat="47.37728" lon="0.0354">
        <ele>88.5</ele>
        <time>2023-10-10T17:32:00Z</time>
      </trkpt>
      <trkpt lat="47.37737" lon="0.03586">
        <ele>91.1</ele>
        <time>2023-10-10T17:32:08Z</time>
      </trkpt>
      <trkpt lat="47.37751" lon="0.03623">
        <ele>92.5</ele>
        <time>2023-10-10T17:32:14Z</time>
      </trkpt>
      <trkpt lat="47.3775" lon="0.03628">
        <ele>92.6</ele>
        <time>2023-10-10T17:32:15Z</time>
      </trkpt>
      <trkpt lat="47.37765" lon="0.03679">
        <ele>95</ele>
        <time>2023-10-10T17:32:24Z</time>
      </trkpt>
      <trkpt lat="47.3777" lon="0.03684">
        <ele>95.3</ele>
        <time>2023-10-10T17:32:25Z</time>
      </trkpt>
      <trkpt lat="47.37774" lon="0.0368">
        <ele>95.3</ele>
        <time>2023-10-10T17:32:27Z</time>
      </trkpt>
      <trkpt lat="47.37783" lon="0.03636">
        <ele>94.3</ele>
        <time>2023-10-10T17:32:34Z</time>
      </trkpt>
      <trkpt lat="47.3781" lon="0.03585">
        <ele>94.4</ele>
        <time>2023-10-10T17:32:44Z</time>
      </trkpt>
      <trkpt lat="47.37833" lon="0.03548">
        <ele>94.7</ele>
        <time>2023-10-10T17:32:52Z</time>
      </trkpt>
      <trkpt lat="47.37842" lon="0.03538">
        <ele>95</ele>
        <time>2023-10-10T17:32:55Z</time>
      </trkpt>
      <trkpt lat="47.37856" lon="0.03512">
        <ele>95.1</ele>
        <time>2023-10-10T17:33:00Z</time>
      </trkpt>
      <trkpt lat="47.37866" lon="0.03503">
        <ele>95.3</ele>
        <time>2023-10-10T17:33:03Z</time>
      </trkpt>
      <trkpt lat="47.37871" lon="0.03492">
        <ele>95.1</ele>
        <time>2023-10-10T17:33:05Z</time>
      </trkpt>
      <trkpt lat="47.37883" lon="0.03478">
        <ele>95</ele>
        <time>2023-10-10T17:33:08Z</time>
      </trkpt>
      <trkpt lat="47.37906" lon="0.03441">
        <ele>93.6</ele>
        <time>2023-10-10T17:33:16Z</time>
      </trkpt>
      <trkpt lat="47.37918" lon="0.03414">
        <ele>94</ele>
        <time>2023-10-10T17:33:21Z</time>
      </trkpt>
      <trkpt lat="47.37934" lon="0.03344">
        <ele>94.6</ele>
        <time>2023-10-10T17:33:33Z</time>
      </trkpt>
      <trkpt lat="47.37931" lon="0.03322">
        <ele>94.5</ele>
        <time>2023-10-10T17:33:37Z</time>
      </trkpt>
      <trkpt lat="47.3794" lon="0.033">
        <ele>94.8</ele>
        <time>2023-10-10T17:33:41Z</time>
      </trkpt>
      <trkpt lat="47.37967" lon="0.03272">
        <ele>95.8</ele>
        <time>2023-10-10T17:33:48Z</time>
      </trkpt>
      <trkpt lat="47.37986" lon="0.03241">
        <ele>96</ele>
        <time>2023-10-10T17:33:55Z</time>
      </trkpt>
      <trkpt lat="47.38035" lon="0.03186">
        <ele>97.3</ele>
        <time>2023-10-10T17:34:09Z</time>
      </trkpt>
      <trkpt lat="47.38095" lon="0.03106">
        <ele>98.3</ele>
        <time>2023-10-10T17:34:28Z</time>
      </trkpt>
      <trkpt lat="47.38126" lon="0.0307">
        <ele>98.1</ele>
        <time>2023-10-10T17:34:37Z</time>
      </trkpt>
      <trkpt lat="47.38161" lon="0.03021">
        <ele>96.6</ele>
        <time>2023-10-10T17:34:49Z</time>
      </trkpt>
      <trkpt lat="47.38174" lon="0.02998">
        <ele>96.1</ele>
        <time>2023-10-10T17:34:53Z</time>
      </trkpt>
      <trkpt lat="47.38182" lon="0.0299">
        <ele>95.8</ele>
        <time>2023-10-10T17:34:56Z</time>
      </trkpt>
      <trkpt lat="47.38195" lon="0.02985">
        <ele>95.9</ele>
        <time>2023-10-10T17:34:59Z</time>
      </trkpt>
      <trkpt lat="47.38217" lon="0.02986">
        <ele>96.4</ele>
        <time>2023-10-10T17:35:04Z</time>
      </trkpt>
      <trkpt lat="47.38284" lon="0.02982">
        <ele>97.9</ele>
        <time>2023-10-10T17:35:20Z</time>
      </trkpt>
      <trkpt lat="47.383" lon="0.02977">
        <ele>98.1</ele>
        <time>2023-10-10T17:35:23Z</time>
      </trkpt>
      <trkpt lat="47.38324" lon="0.02974">
        <ele>98.8</ele>
        <time>2023-10-10T17:35:29Z</time>
      </trkpt>
      <trkpt lat="47.38333" lon="0.0297">
        <ele>98.9</ele>
        <time>2023-10-10T17:35:31Z</time>
      </trkpt>
      <trkpt lat="47.38361" lon="0.02968">
        <ele>98.8</ele>
        <time>2023-10-10T17:35:38Z</time>
      </trkpt>
      <trkpt lat="47.38377" lon="0.02964">
        <ele>98.7</ele>
        <time>2023-10-10T17:35:42Z</time>
      </trkpt>
      <trkpt lat="47.38383" lon="0.02965">
        <ele>98.7</ele>
        <time>2023-10-10T17:35:43Z</time>
      </trkpt>
      <trkpt lat="47.38393" lon="0.02961">
        <ele>98.6</ele>
        <time>2023-10-10T17:35:45Z</time>
      </trkpt>
      <trkpt lat="47.38405" lon="0.02947">
        <ele>98.1</ele>
        <time>2023-10-10T17:35:49Z</time>
      </trkpt>
      <trkpt lat="47.38422" lon="0.0292">
        <ele>98</ele>
        <time>2023-10-10T17:35:55Z</time>
      </trkpt>
      <trkpt lat="47.38434" lon="0.02889">
        <ele>97</ele>
        <time>2023-10-10T17:36:00Z</time>
      </trkpt>
      <trkpt lat="47.38477" lon="0.02802">
        <ele>92.6</ele>
        <time>2023-10-10T17:36:18Z</time>
      </trkpt>
      <trkpt lat="47.38497" lon="0.02773">
        <ele>89.9</ele>
        <time>2023-10-10T17:36:24Z</time>
      </trkpt>
      <trkpt lat="47.38509" lon="0.02748">
        <ele>88.5</ele>
        <time>2023-10-10T17:36:29Z</time>
      </trkpt>
      <trkpt lat="47.38532" lon="0.02775">
        <ele>88.6</ele>
        <time>2023-10-10T17:36:36Z</time>
      </trkpt>
      <trkpt lat="47.38574" lon="0.02839">
        <ele>87.9</ele>
        <time>2023-10-10T17:36:50Z</time>
      </trkpt>
      <trkpt lat="47.3858" lon="0.02854">
        <ele>88</ele>
        <time>2023-10-10T17:36:53Z</time>
      </trkpt>
      <trkpt lat="47.38595" lon="0.02878">
        <ele>88.2</ele>
        <time>2023-10-10T17:36:58Z</time>
      </trkpt>
      <trkpt lat="47.38607" lon="0.02893">
        <ele>88.3</ele>
        <time>2023-10-10T17:37:01Z</time>
      </trkpt>
      <trkpt lat="47.38619" lon="0.02916">
        <ele>88.4</ele>
        <time>2023-10-10T17:37:06Z</time>
      </trkpt>
      <trkpt lat="47.3863" lon="0.02928">
        <ele>88</ele>
        <time>2023-10-10T17:37:09Z</time>
      </trkpt>
      <trkpt lat="47.38644" lon="0.02949">
        <ele>88</ele>
        <time>2023-10-10T17:37:14Z</time>
      </trkpt>
      <trkpt lat="47.38665" lon="0.02987">
        <ele>88.6</ele>
        <time>2023-10-10T17:37:22Z</time>
      </trkpt>
      <trkpt lat="47.38692" lon="0.03023">
        <ele>88</ele>
        <time>2023-10-10T17:37:30Z</time>
      </trkpt>
      <trkpt lat="47.38701" lon="0.03041">
        <ele>88.2</ele>
        <time>2023-10-10T17:37:34Z</time>
      </trkpt>
      <trkpt lat="47.38743" lon="0.03108">
        <ele>89.1</ele>
        <time>2023-10-10T17:37:48Z</time>
      </trkpt>
      <trkpt lat="47.38765" lon="0.03138">
        <ele>89.4</ele>
        <time>2023-10-10T17:37:55Z</time>
      </trkpt>
      <trkpt lat="47.38788" lon="0.03154">
        <ele>89.5</ele>
        <time>2023-10-10T17:38:01Z</time>
      </trkpt>
      <trkpt lat="47.38793" lon="0.03161">
        <ele>89.6</ele>
        <time>2023-10-10T17:38:03Z</time>
      </trkpt>
      <trkpt lat="47.38794" lon="0.03167">
        <ele>89.8</ele>
        <time>2023-10-10T17:38:04Z</time>
      </trkpt>
      <trkpt lat="47.38792" lon="0.03172">
        <ele>90.2</ele>
        <time>2023-10-10T17:38:05Z</time>
      </trkpt>
      <trkpt lat="47.38776" lon="0.03185">
        <ele>91.7</ele>
        <time>2023-10-10T17:38:09Z</time>
      </trkpt>
      <trkpt lat="47.38764" lon="0.03202">
        <ele>92.9</ele>
        <time>2023-10-10T17:38:13Z</time>
      </trkpt>
      <trkpt lat="47.38746" lon="0.03217">
        <ele>94.8</ele>
        <time>2023-10-10T17:38:18Z</time>
      </trkpt>
      <trkpt lat="47.38711" lon="0.03269">
        <ele>98.1</ele>
        <time>2023-10-10T17:38:29Z</time>
      </trkpt>
      <trkpt lat="47.38674" lon="0.03307">
        <ele>101.8</ele>
        <time>2023-10-10T17:38:40Z</time>
      </trkpt>
      <trkpt lat="47.38653" lon="0.03335">
        <ele>104.6</ele>
        <time>2023-10-10T17:38:46Z</time>
      </trkpt>
      <trkpt lat="47.38626" lon="0.03358">
        <ele>107.2</ele>
        <time>2023-10-10T17:38:54Z</time>
      </trkpt>
      <trkpt lat="47.38619" lon="0.03361">
        <ele>107.7</ele>
        <time>2023-10-10T17:38:55Z</time>
      </trkpt>
      <trkpt lat="47.38614" lon="0.0336">
        <ele>107.8</ele>
        <time>2023-10-10T17:38:56Z</time>
      </trkpt>
      <trkpt lat="47.38577" lon="0.03384">
        <ele>109.2</ele>
        <time>2023-10-10T17:39:06Z</time>
      </trkpt>
      <trkpt lat="47.38549" lon="0.03395">
        <ele>110.2</ele>
        <time>2023-10-10T17:39:13Z</time>
      </trkpt>
      <trkpt lat="47.38506" lon="0.0342">
        <ele>111</ele>
        <time>2023-10-10T17:39:23Z</time>
      </trkpt>
      <trkpt lat="47.38481" lon="0.03429">
        <ele>111</ele>
        <time>2023-10-10T17:39:29Z</time>
      </trkpt>
      <trkpt lat="47.38472" lon="0.03429">
        <ele>111</ele>
        <time>2023-10-10T17:39:32Z</time>
      </trkpt>
      <trkpt lat="47.38411" lon="0.03467">
        <ele>110.8</ele>
        <time>2023-10-10T17:39:47Z</time>
      </trkpt>
      <trkpt lat="47.38378" lon="0.03476">
        <ele>110</ele>
        <time>2023-10-10T17:39:55Z</time>
      </trkpt>
      <trkpt lat="47.38336" lon="0.03497">
        <ele>109.2</ele>
        <time>2023-10-10T17:40:05Z</time>
      </trkpt>
      <trkpt lat="47.3827" lon="0.03545">
        <ele>108</ele>
        <time>2023-10-10T17:40:22Z</time>
      </trkpt>
      <trkpt lat="47.38231" lon="0.03569">
        <ele>107.6</ele>
        <time>2023-10-10T17:40:32Z</time>
      </trkpt>
      <trkpt lat="47.38183" lon="0.03605">
        <ele>107</ele>
        <time>2023-10-10T17:40:45Z</time>
      </trkpt>
      <trkpt lat="47.38148" lon="0.03628">
        <ele>106.3</ele>
        <time>2023-10-10T17:40:54Z</time>
      </trkpt>
      <trkpt lat="47.38095" lon="0.03658">
        <ele>103.7</ele>
        <time>2023-10-10T17:41:07Z</time>
      </trkpt>
      <trkpt lat="47.38004" lon="0.03727">
        <ele>102</ele>
        <time>2023-10-10T17:41:31Z</time>
      </trkpt>
      <trkpt lat="47.37981" lon="0.03738">
        <ele>102</ele>
        <time>2023-10-10T17:41:37Z</time>
      </trkpt>
      <trkpt lat="47.37831" lon="0.03833">
        <ele>100</ele>
        <time>2023-10-10T17:42:15Z</time>
      </trkpt>
      <trkpt lat="47.37737" lon="0.03895">
        <ele>98</ele>
        <time>2023-10-10T17:42:39Z</time>
      </trkpt>
      <trkpt lat="47.37671" lon="0.03943">
        <ele>97.1</ele>
        <time>2023-10-10T17:42:56Z</time>
      </trkpt>
      <trkpt lat="47.37637" lon="0.03987">
        <ele>95.5</ele>
        <time>2023-10-10T17:43:06Z</time>
      </trkpt>
      <trkpt lat="47.37589" lon="0.04043">
        <ele>95</ele>
        <time>2023-10-10T17:43:21Z</time>
      </trkpt>
      <trkpt lat="47.37587" lon="0.0406">
        <ele>94.4</ele>
        <time>2023-10-10T17:43:23Z</time>
      </trkpt>
      <trkpt lat="47.37588" lon="0.04081">
        <ele>93</ele>
        <time>2023-10-10T17:43:27Z</time>
      </trkpt>
      <trkpt lat="47.37581" lon="0.04119">
        <ele>92.1</ele>
        <time>2023-10-10T17:43:33Z</time>
      </trkpt>
      <trkpt lat="47.37584" lon="0.04167">
        <ele>91</ele>
        <time>2023-10-10T17:43:41Z</time>
      </trkpt>
      <trkpt lat="47.37575" lon="0.04218">
        <ele>90.5</ele>
        <time>2023-10-10T17:43:49Z</time>
      </trkpt>
      <trkpt lat="47.37562" lon="0.04262">
        <ele>89.3</ele>
        <time>2023-10-10T17:43:57Z</time>
      </trkpt>
      <trkpt lat="47.37553" lon="0.04275">
        <ele>89.2</ele>
        <time>2023-10-10T17:43:59Z</time>
      </trkpt>
      <trkpt lat="47.37551" lon="0.0429">
        <ele>88.7</ele>
        <time>2023-10-10T17:44:02Z</time>
      </trkpt>
      <trkpt lat="47.37542" lon="0.04316">
        <ele>88.3</ele>
        <time>2023-10-10T17:44:07Z</time>
      </trkpt>
      <trkpt lat="47.37537" lon="0.04348">
        <ele>88.5</ele>
        <time>2023-10-10T17:44:12Z</time>
      </trkpt>
      <trkpt lat="47.37514" lon="0.04392">
        <ele>91.1</ele>
        <time>2023-10-10T17:44:20Z</time>
      </trkpt>
      <trkpt lat="47.37506" lon="0.04415">
        <ele>92.5</ele>
        <time>2023-10-10T17:44:25Z</time>
      </trkpt>
      <trkpt lat="47.37495" lon="0.04436">
        <ele>93.2</ele>
        <time>2023-10-10T17:44:29Z</time>
      </trkpt>
      <trkpt lat="47.37494" lon="0.04445">
        <ele>93.2</ele>
        <time>2023-10-10T17:44:30Z</time>
      </trkpt>
      <trkpt lat="47.37488" lon="0.04455">
        <ele>93.6</ele>
        <time>2023-10-10T17:44:32Z</time>
      </trkpt>
      <trkpt lat="47.37489" lon="0.04459">
        <ele>93.6</ele>
        <time>2023-10-10T17:44:33Z</time>
      </trkpt>
      <trkpt lat="47.37483" lon="0.04475">
        <ele>94.2</ele>
        <time>2023-10-10T17:44:36Z</time>
      </trkpt>
      <trkpt lat="47.37474" lon="0.04493">
        <ele>94.9</ele>
        <time>2023-10-10T17:44:39Z</time>
      </trkpt>
      <trkpt lat="47.37499" lon="0.04514">
        <ele>93.1</ele>
        <time>2023-10-10T17:44:46Z</time>
      </trkpt>
      <trkpt lat="47.37537" lon="0.04531">
        <ele>89.3</ele>
        <time>2023-10-10T17:44:55Z</time>
      </trkpt>
      <trkpt lat="47.37588" lon="0.04558">
        <ele>84.8</ele>
        <time>2023-10-10T17:45:08Z</time>
      </trkpt>
      <trkpt lat="47.37608" lon="0.04572">
        <ele>84.1</ele>
        <time>2023-10-10T17:45:13Z</time>
      </trkpt>
      <trkpt lat="47.37633" lon="0.04582">
        <ele>83.2</ele>
        <time>2023-10-10T17:45:19Z</time>
      </trkpt>
      <trkpt lat="47.37654" lon="0.04586">
        <ele>82.6</ele>
        <time>2023-10-10T17:45:24Z</time>
      </trkpt>
      <trkpt lat="47.37683" lon="0.04604">
        <ele>81.7</ele>
        <time>2023-10-10T17:45:32Z</time>
      </trkpt>
      <trkpt lat="47.3769" lon="0.0463">
        <ele>81.3</ele>
        <time>2023-10-10T17:45:36Z</time>
      </trkpt>
      <trkpt lat="47.3769" lon="0.04635">
        <ele>81.3</ele>
        <time>2023-10-10T17:45:37Z</time>
      </trkpt>
      <trkpt lat="47.37686" lon="0.04639">
        <ele>81.6</ele>
        <time>2023-10-10T17:45:38Z</time>
      </trkpt>
      <trkpt lat="47.37684" lon="0.04648">
        <ele>82.1</ele>
        <time>2023-10-10T17:45:39Z</time>
      </trkpt>
      <trkpt lat="47.37684" lon="0.04669">
        <ele>82.8</ele>
        <time>2023-10-10T17:45:43Z</time>
      </trkpt>
      <trkpt lat="47.3768" lon="0.04686">
        <ele>83.7</ele>
        <time>2023-10-10T17:45:46Z</time>
      </trkpt>
      <trkpt lat="47.37682" lon="0.04696">
        <ele>83.9</ele>
        <time>2023-10-10T17:45:47Z</time>
      </trkpt>
      <trkpt lat="47.3768" lon="0.0471">
        <ele>84</ele>
        <time>2023-10-10T17:45:50Z</time>
      </trkpt>
      <trkpt lat="47.37692" lon="0.04747">
        <ele>84</ele>
        <time>2023-10-10T17:45:56Z</time>
      </trkpt>
      <trkpt lat="47.3769" lon="0.04788">
        <ele>83.9</ele>
        <time>2023-10-10T17:46:02Z</time>
      </trkpt>
      <trkpt lat="47.37691" lon="0.04846">
        <ele>82.8</ele>
        <time>2023-10-10T17:46:12Z</time>
      </trkpt>
      <trkpt lat="47.37695" lon="0.04887">
        <ele>81</ele>
        <time>2023-10-10T17:46:18Z</time>
      </trkpt>
      <trkpt lat="47.37691" lon="0.04906">
        <ele>81.2</ele>
        <time>2023-10-10T17:46:21Z</time>
      </trkpt>
      <trkpt lat="47.37694" lon="0.04936">
        <ele>81</ele>
        <time>2023-10-10T17:46:26Z</time>
      </trkpt>
      <trkpt lat="47.37693" lon="0.04999">
        <ele>81.1</ele>
        <time>2023-10-10T17:46:36Z</time>
      </trkpt>
      <trkpt lat="47.37696" lon="0.05016">
        <ele>80.9</ele>
        <time>2023-10-10T17:46:39Z</time>
      </trkpt>
      <trkpt lat="47.37694" lon="0.05032">
        <ele>80.9</ele>
        <time>2023-10-10T17:46:41Z</time>
      </trkpt>
      <trkpt lat="47.37702" lon="0.05041">
        <ele>80.1</ele>
        <time>2023-10-10T17:46:44Z</time>
      </trkpt>
      <trkpt lat="47.37722" lon="0.05051">
        <ele>79</ele>
        <time>2023-10-10T17:46:49Z</time>
      </trkpt>
      <trkpt lat="47.3776" lon="0.05067">
        <ele>77.9</ele>
        <time>2023-10-10T17:46:58Z</time>
      </trkpt>
      <trkpt lat="47.37778" lon="0.05071">
        <ele>77.4</ele>
        <time>2023-10-10T17:47:02Z</time>
      </trkpt>
      <trkpt lat="47.37787" lon="0.05077">
        <ele>77.2</ele>
        <time>2023-10-10T17:47:05Z</time>
      </trkpt>
      <trkpt lat="47.37792" lon="0.05085">
        <ele>77</ele>
        <time>2023-10-10T17:47:06Z</time>
      </trkpt>
      <trkpt lat="47.3779" lon="0.05093">
        <ele>77</ele>
        <time>2023-10-10T17:47:08Z</time>
      </trkpt>
      <trkpt lat="47.37785" lon="0.05098">
        <ele>77</ele>
        <time>2023-10-10T17:47:09Z</time>
      </trkpt>
      <trkpt lat="47.37738" lon="0.05131">
        <ele>77.7</ele>
        <time>2023-10-10T17:47:21Z</time>
      </trkpt>
      <trkpt lat="47.37707" lon="0.05145">
        <ele>79</ele>
        <time>2023-10-10T17:47:29Z</time>
      </trkpt>
      <trkpt lat="47.37691" lon="0.05161">
        <ele>79.4</ele>
        <time>2023-10-10T17:47:33Z</time>
      </trkpt>
      <trkpt lat="47.37657" lon="0.05177">
        <ele>81.1</ele>
        <time>2023-10-10T17:47:42Z</time>
      </trkpt>
      <trkpt lat="47.3764" lon="0.05187">
        <ele>81.9</ele>
        <time>2023-10-10T17:47:46Z</time>
      </trkpt>
      <trkpt lat="47.37633" lon="0.05194">
        <ele>82.2</ele>
        <time>2023-10-10T17:47:48Z</time>
      </trkpt>
      <trkpt lat="47.37618" lon="0.05196">
        <ele>82.7</ele>
        <time>2023-10-10T17:47:51Z</time>
      </trkpt>
      <trkpt lat="47.37605" lon="0.05202">
        <ele>83.2</ele>
        <time>2023-10-10T17:47:55Z</time>
      </trkpt>
      <trkpt lat="47.37596" lon="0.05212">
        <ele>83.5</ele>
        <time>2023-10-10T17:47:57Z</time>
      </trkpt>
      <trkpt lat="47.37566" lon="0.05227">
        <ele>84.6</ele>
        <time>2023-10-10T17:48:05Z</time>
      </trkpt>
      <trkpt lat="47.37533" lon="0.05239">
        <ele>86.6</ele>
        <time>2023-10-10T17:48:13Z</time>
      </trkpt>
      <trkpt lat="47.37512" lon="0.05257">
        <ele>88.6</ele>
        <time>2023-10-10T17:48:18Z</time>
      </trkpt>
      <trkpt lat="47.37509" lon="0.05263">
        <ele>88.9</ele>
        <time>2023-10-10T17:48:19Z</time>
      </trkpt>
      <trkpt lat="47.37526" lon="0.05279">
        <ele>86.3</ele>
        <time>2023-10-10T17:48:24Z</time>
      </trkpt>
      <trkpt lat="47.37566" lon="0.05343">
        <ele>83.6</ele>
        <time>2023-10-10T17:48:38Z</time>
      </trkpt>
      <trkpt lat="47.37568" lon="0.0535">
        <ele>83.6</ele>
        <time>2023-10-10T17:48:39Z</time>
      </trkpt>
      <trkpt lat="47.37574" lon="0.05357">
        <ele>83.3</ele>
        <time>2023-10-10T17:48:41Z</time>
      </trkpt>
      <trkpt lat="47.37585" lon="0.05396">
        <ele>82.9</ele>
        <time>2023-10-10T17:48:48Z</time>
      </trkpt>
      <trkpt lat="47.37613" lon="0.05433">
        <ele>81.9</ele>
        <time>2023-10-10T17:48:56Z</time>
      </trkpt>
      <trkpt lat="47.37623" lon="0.05441">
        <ele>81.6</ele>
        <time>2023-10-10T17:48:59Z</time>
      </trkpt>
      <trkpt lat="47.37637" lon="0.05463">
        <ele>81.1</ele>
        <time>2023-10-10T17:49:04Z</time>
      </trkpt>
      <trkpt lat="47.37641" lon="0.05483">
        <ele>80.5</ele>
        <time>2023-10-10T17:49:07Z</time>
      </trkpt>
      <trkpt lat="47.37655" lon="0.05509">
        <ele>79.4</ele>
        <time>2023-10-10T17:49:12Z</time>
      </trkpt>
      <trkpt lat="47.37657" lon="0.05517">
        <ele>79.3</ele>
        <time>2023-10-10T17:49:14Z</time>
      </trkpt>
      <trkpt lat="47.37674" lon="0.05542">
        <ele>79.5</ele>
        <time>2023-10-10T17:49:19Z</time>
      </trkpt>
      <trkpt lat="47.37739" lon="0.05666">
        <ele>82.4</ele>
        <time>2023-10-10T17:49:44Z</time>
      </trkpt>
      <trkpt lat="47.37739" lon="0.05675">
        <ele>82.6</ele>
        <time>2023-10-10T17:49:45Z</time>
      </trkpt>
      <trkpt lat="47.37735" lon="0.05683">
        <ele>82.8</ele>
        <time>2023-10-10T17:49:47Z</time>
      </trkpt>
      <trkpt lat="47.37667" lon="0.0575">
        <ele>86</ele>
        <time>2023-10-10T17:50:06Z</time>
      </trkpt>
      <trkpt lat="47.37642" lon="0.05784">
        <ele>87.2</ele>
        <time>2023-10-10T17:50:14Z</time>
      </trkpt>
      <trkpt lat="47.37633" lon="0.05803">
        <ele>88.1</ele>
        <time>2023-10-10T17:50:18Z</time>
      </trkpt>
      <trkpt lat="47.37632" lon="0.05819">
        <ele>88.7</ele>
        <time>2023-10-10T17:50:20Z</time>
      </trkpt>
      <trkpt lat="47.37637" lon="0.05857">
        <ele>89.9</ele>
        <time>2023-10-10T17:50:26Z</time>
      </trkpt>
      <trkpt lat="47.37636" lon="0.05895">
        <ele>91.5</ele>
        <time>2023-10-10T17:50:32Z</time>
      </trkpt>
      <trkpt lat="47.3764" lon="0.05943">
        <ele>94.8</ele>
        <time>2023-10-10T17:50:40Z</time>
      </trkpt>
      <trkpt lat="47.37643" lon="0.05946">
        <ele>94.8</ele>
        <time>2023-10-10T17:50:41Z</time>
      </trkpt>
      <trkpt lat="47.3767" lon="0.05951">
        <ele>93.5</ele>
        <time>2023-10-10T17:50:47Z</time>
      </trkpt>
      <trkpt lat="47.37753" lon="0.05958">
        <ele>88.8</ele>
        <time>2023-10-10T17:51:07Z</time>
      </trkpt>
      <trkpt lat="47.37791" lon="0.05955">
        <ele>86.6</ele>
        <time>2023-10-10T17:51:16Z</time>
      </trkpt>
      <trkpt lat="47.37814" lon="0.05959">
        <ele>85.6</ele>
        <time>2023-10-10T17:51:21Z</time>
      </trkpt>
      <trkpt lat="47.37846" lon="0.05974">
        <ele>84.2</ele>
        <time>2023-10-10T17:51:29Z</time>
      </trkpt>
      <trkpt lat="47.37858" lon="0.05987">
        <ele>83.8</ele>
        <time>2023-10-10T17:51:32Z</time>
      </trkpt>
      <trkpt lat="47.37865" lon="0.06006">
        <ele>83.9</ele>
        <time>2023-10-10T17:51:36Z</time>
      </trkpt>
      <trkpt lat="47.37869" lon="0.06046">
        <ele>84.4</ele>
        <time>2023-10-10T17:51:42Z</time>
      </trkpt>
      <trkpt lat="47.37875" lon="0.06073">
        <ele>84.6</ele>
        <time>2023-10-10T17:51:47Z</time>
      </trkpt>
      <trkpt lat="47.37882" lon="0.0609">
        <ele>84.6</ele>
        <time>2023-10-10T17:51:50Z</time>
      </trkpt>
      <trkpt lat="47.37885" lon="0.06116">
        <ele>84.6</ele>
        <time>2023-10-10T17:51:54Z</time>
      </trkpt>
      <trkpt lat="47.379" lon="0.06175">
        <ele>84.2</ele>
        <time>2023-10-10T17:52:04Z</time>
      </trkpt>
      <trkpt lat="47.379" lon="0.06199">
        <ele>84.4</ele>
        <time>2023-10-10T17:52:08Z</time>
      </trkpt>
      <trkpt lat="47.37905" lon="0.06237">
        <ele>84.8</ele>
        <time>2023-10-10T17:52:14Z</time>
      </trkpt>
      <trkpt lat="47.37906" lon="0.0629">
        <ele>85.1</ele>
        <time>2023-10-10T17:52:22Z</time>
      </trkpt>
      <trkpt lat="47.37911" lon="0.06341">
        <ele>84.4</ele>
        <time>2023-10-10T17:52:30Z</time>
      </trkpt>
      <trkpt lat="47.37917" lon="0.06373">
        <ele>84</ele>
        <time>2023-10-10T17:52:36Z</time>
      </trkpt>
      <trkpt lat="47.37941" lon="0.06447">
        <ele>84</ele>
        <time>2023-10-10T17:52:49Z</time>
      </trkpt>
      <trkpt lat="47.37975" lon="0.06519">
        <ele>81.9</ele>
        <time>2023-10-10T17:53:02Z</time>
      </trkpt>
      <trkpt lat="47.3799" lon="0.06562">
        <ele>81.1</ele>
        <time>2023-10-10T17:53:10Z</time>
      </trkpt>
      <trkpt lat="47.38007" lon="0.06622">
        <ele>79.7</ele>
        <time>2023-10-10T17:53:20Z</time>
      </trkpt>
      <trkpt lat="47.38055" lon="0.06722">
        <ele>78</ele>
        <time>2023-10-10T17:53:40Z</time>
      </trkpt>
      <trkpt lat="47.38099" lon="0.06866">
        <ele>79.2</ele>
        <time>2023-10-10T17:54:05Z</time>
      </trkpt>
      <trkpt lat="47.3813" lon="0.0694">
        <ele>81.2</ele>
        <time>2023-10-10T17:54:18Z</time>
      </trkpt>
      <trkpt lat="47.38153" lon="0.07006">
        <ele>82.3</ele>
        <time>2023-10-10T17:54:30Z</time>
      </trkpt>
      <trkpt lat="47.38177" lon="0.07058">
        <ele>84.3</ele>
        <time>2023-10-10T17:54:40Z</time>
      </trkpt>
      <trkpt lat="47.38208" lon="0.07117">
        <ele>84.7</ele>
        <time>2023-10-10T17:54:52Z</time>
      </trkpt>
      <trkpt lat="47.38208" lon="0.07135">
        <ele>85.4</ele>
        <time>2023-10-10T17:54:55Z</time>
      </trkpt>
      <trkpt lat="47.38205" lon="0.07142">
        <ele>86</ele>
        <time>2023-10-10T17:54:56Z</time>
      </trkpt>
      <trkpt lat="47.38195" lon="0.07135">
        <ele>86.8</ele>
        <time>2023-10-10T17:54:59Z</time>
      </trkpt>
      <trkpt lat="47.38169" lon="0.07108">
        <ele>87.6</ele>
        <time>2023-10-10T17:55:06Z</time>
      </trkpt>
      <trkpt lat="47.38153" lon="0.07095">
        <ele>87.8</ele>
        <time>2023-10-10T17:55:10Z</time>
      </trkpt>
      <trkpt lat="47.38096" lon="0.07065">
        <ele>88.4</ele>
        <time>2023-10-10T17:55:25Z</time>
      </trkpt>
      <trkpt lat="47.38045" lon="0.07025">
        <ele>86.8</ele>
        <time>2023-10-10T17:55:38Z</time>
      </trkpt>
      <trkpt lat="47.37998" lon="0.06998">
        <ele>84.9</ele>
        <time>2023-10-10T17:55:50Z</time>
      </trkpt>
      <trkpt lat="47.37967" lon="0.06965">
        <ele>83.7</ele>
        <time>2023-10-10T17:55:59Z</time>
      </trkpt>
      <trkpt lat="47.37943" lon="0.06935">
        <ele>82.3</ele>
        <time>2023-10-10T17:56:06Z</time>
      </trkpt>
      <trkpt lat="47.37923" lon="0.06905">
        <ele>81.4</ele>
        <time>2023-10-10T17:56:13Z</time>
      </trkpt>
      <trkpt lat="47.37907" lon="0.06871">
        <ele>81.7</ele>
        <time>2023-10-10T17:56:19Z</time>
      </trkpt>
      <trkpt lat="47.37884" lon="0.06836">
        <ele>83.2</ele>
        <time>2023-10-10T17:56:27Z</time>
      </trkpt>
      <trkpt lat="47.37869" lon="0.06806">
        <ele>84.4</ele>
        <time>2023-10-10T17:56:33Z</time>
      </trkpt>
      <trkpt lat="47.37841" lon="0.06717">
        <ele>86.9</ele>
        <time>2023-10-10T17:56:48Z</time>
      </trkpt>
      <trkpt lat="47.37825" lon="0.06674">
        <ele>88.2</ele>
        <time>2023-10-10T17:56:56Z</time>
      </trkpt>
      <trkpt lat="47.37781" lon="0.06523">
        <ele>93.9</ele>
        <time>2023-10-10T17:57:22Z</time>
      </trkpt>
      <trkpt lat="47.37763" lon="0.06504">
        <ele>96.5</ele>
        <time>2023-10-10T17:57:27Z</time>
      </trkpt>
      <trkpt lat="47.37734" lon="0.06485">
        <ele>100.5</ele>
        <time>2023-10-10T17:57:35Z</time>
      </trkpt>
      <trkpt lat="47.37694" lon="0.06449">
        <ele>103.8</ele>
        <time>2023-10-10T17:57:46Z</time>
      </trkpt>
      <trkpt lat="47.37684" lon="0.06448">
        <ele>103.9</ele>
        <time>2023-10-10T17:57:48Z</time>
      </trkpt>
      <trkpt lat="47.37651" lon="0.06433">
        <ele>105</ele>
        <time>2023-10-10T17:57:56Z</time>
      </trkpt>
      <trkpt lat="47.37625" lon="0.06398">
        <ele>106.5</ele>
        <time>2023-10-10T17:58:04Z</time>
      </trkpt>
      <trkpt lat="47.37595" lon="0.06376">
        <ele>107.6</ele>
        <time>2023-10-10T17:58:12Z</time>
      </trkpt>
      <trkpt lat="47.37584" lon="0.06363">
        <ele>108</ele>
        <time>2023-10-10T17:58:15Z</time>
      </trkpt>
      <trkpt lat="47.37571" lon="0.06353">
        <ele>108.4</ele>
        <time>2023-10-10T17:58:19Z</time>
      </trkpt>
      <trkpt lat="47.37521" lon="0.06282">
        <ele>109.2</ele>
        <time>2023-10-10T17:58:35Z</time>
      </trkpt>
      <trkpt lat="47.37507" lon="0.06257">
        <ele>109.2</ele>
        <time>2023-10-10T17:58:40Z</time>
      </trkpt>
      <trkpt lat="47.37486" lon="0.06227">
        <ele>109.1</ele>
        <time>2023-10-10T17:58:47Z</time>
      </trkpt>
      <trkpt lat="47.37436" lon="0.06134">
        <ele>106.1</ele>
        <time>2023-10-10T17:59:06Z</time>
      </trkpt>
      <trkpt lat="47.37432" lon="0.06119">
        <ele>105.7</ele>
        <time>2023-10-10T17:59:08Z</time>
      </trkpt>
      <trkpt lat="47.37423" lon="0.06106">
        <ele>105.6</ele>
        <time>2023-10-10T17:59:11Z</time>
      </trkpt>
      <trkpt lat="47.37414" lon="0.06069">
        <ele>104.5</ele>
        <time>2023-10-10T17:59:17Z</time>
      </trkpt>
      <trkpt lat="47.37401" lon="0.06037">
        <ele>103.9</ele>
        <time>2023-10-10T17:59:23Z</time>
      </trkpt>
      <trkpt lat="47.37389" lon="0.06024">
        <ele>103.9</ele>
        <time>2023-10-10T17:59:27Z</time>
      </trkpt>
      <trkpt lat="47.37381" lon="0.06023">
        <ele>103.9</ele>
        <time>2023-10-10T17:59:29Z</time>
      </trkpt>
      <trkpt lat="47.37369" lon="0.0603">
        <ele>104.1</ele>
        <time>2023-10-10T17:59:32Z</time>
      </trkpt>
      <trkpt lat="47.37352" lon="0.06045">
        <ele>104.7</ele>
        <time>2023-10-10T17:59:36Z</time>
      </trkpt>
      <trkpt lat="47.37336" lon="0.06064">
        <ele>105.3</ele>
        <time>2023-10-10T17:59:41Z</time>
      </trkpt>
      <trkpt lat="47.37268" lon="0.06117">
        <ele>106</ele>
        <time>2023-10-10T17:59:59Z</time>
      </trkpt>
      <trkpt lat="47.37256" lon="0.06123">
        <ele>106</ele>
        <time>2023-10-10T18:00:02Z</time>
      </trkpt>
      <trkpt lat="47.37235" lon="0.06141">
        <ele>106.1</ele>
        <time>2023-10-10T18:00:08Z</time>
      </trkpt>
      <trkpt lat="47.37216" lon="0.06152">
        <ele>106.4</ele>
        <time>2023-10-10T18:00:12Z</time>
      </trkpt>
      <trkpt lat="47.37203" lon="0.06168">
        <ele>106.3</ele>
        <time>2023-10-10T18:00:16Z</time>
      </trkpt>
      <trkpt lat="47.37183" lon="0.0618">
        <ele>106.5</ele>
        <time>2023-10-10T18:00:21Z</time>
      </trkpt>
      <trkpt lat="47.37168" lon="0.06202">
        <ele>107</ele>
        <time>2023-10-10T18:00:26Z</time>
      </trkpt>
      <trkpt lat="47.37163" lon="0.06206">
        <ele>107</ele>
        <time>2023-10-10T18:00:28Z</time>
      </trkpt>
      <trkpt lat="47.37144" lon="0.06214">
        <ele>107</ele>
        <time>2023-10-10T18:00:32Z</time>
      </trkpt>
      <trkpt lat="47.37121" lon="0.06232">
        <ele>107.4</ele>
        <time>2023-10-10T18:00:38Z</time>
      </trkpt>
      <trkpt lat="47.37093" lon="0.06246">
        <ele>107.3</ele>
        <time>2023-10-10T18:00:45Z</time>
      </trkpt>
      <trkpt lat="47.37028" lon="0.06308">
        <ele>107</ele>
        <time>2023-10-10T18:01:03Z</time>
      </trkpt>
      <trkpt lat="47.36966" lon="0.06357">
        <ele>104.8</ele>
        <time>2023-10-10T18:01:20Z</time>
      </trkpt>
      <trkpt lat="47.36935" lon="0.06375">
        <ele>103.5</ele>
        <time>2023-10-10T18:01:28Z</time>
      </trkpt>
      <trkpt lat="47.36926" lon="0.06373">
        <ele>103.1</ele>
        <time>2023-10-10T18:01:30Z</time>
      </trkpt>
      <trkpt lat="47.36918" lon="0.06364">
        <ele>102.9</ele>
        <time>2023-10-10T18:01:32Z</time>
      </trkpt>
      <trkpt lat="47.36868" lon="0.06272">
        <ele>103.5</ele>
        <time>2023-10-10T18:01:51Z</time>
      </trkpt>
      <trkpt lat="47.36737" lon="0.06048">
        <ele>90.6</ele>
        <time>2023-10-10T18:02:38Z</time>
      </trkpt>
      <trkpt lat="47.36726" lon="0.06021">
        <ele>89.7</ele>
        <time>2023-10-10T18:02:43Z</time>
      </trkpt>
      <trkpt lat="47.36696" lon="0.05909">
        <ele>88.2</ele>
        <time>2023-10-10T18:03:02Z</time>
      </trkpt>
      <trkpt lat="47.36686" lon="0.05884">
        <ele>87.2</ele>
        <time>2023-10-10T18:03:06Z</time>
      </trkpt>
      <trkpt lat="47.36657" lon="0.05829">
        <ele>85.8</ele>
        <time>2023-10-10T18:03:17Z</time>
      </trkpt>
      <trkpt lat="47.36616" lon="0.05767">
        <ele>83.9</ele>
        <time>2023-10-10T18:03:31Z</time>
      </trkpt>
      <trkpt lat="47.36582" lon="0.05728">
        <ele>82.2</ele>
        <time>2023-10-10T18:03:41Z</time>
      </trkpt>
      <trkpt lat="47.36548" lon="0.05694">
        <ele>81</ele>
        <time>2023-10-10T18:03:51Z</time>
      </trkpt>
      <trkpt lat="47.36529" lon="0.05679">
        <ele>81</ele>
        <time>2023-10-10T18:03:56Z</time>
      </trkpt>
      <trkpt lat="47.36456" lon="0.05631">
        <ele>79.8</ele>
        <time>2023-10-10T18:04:14Z</time>
      </trkpt>
      <trkpt lat="47.36272" lon="0.05522">
        <ele>77.2</ele>
        <time>2023-10-10T18:05:01Z</time>
      </trkpt>
      <trkpt lat="47.36207" lon="0.05476">
        <ele>75.5</ele>
        <time>2023-10-10T18:05:17Z</time>
      </trkpt>
      <trkpt lat="47.36173" lon="0.05458">
        <ele>75.1</ele>
        <time>2023-10-10T18:05:26Z</time>
      </trkpt>
      <trkpt lat="47.36081" lon="0.05423">
        <ele>74</ele>
        <time>2023-10-10T18:05:48Z</time>
      </trkpt>
      <trkpt lat="47.3591" lon="0.05323">
        <ele>73</ele>
        <time>2023-10-10T18:06:31Z</time>
      </trkpt>
      <trkpt lat="47.35894" lon="0.05319">
        <ele>73</ele>
        <time>2023-10-10T18:06:35Z</time>
      </trkpt>
      <trkpt lat="47.35876" lon="0.05318">
        <ele>73</ele>
        <time>2023-10-10T18:06:39Z</time>
      </trkpt>
      <trkpt lat="47.35797" lon="0.05319">
        <ele>73</ele>
        <time>2023-10-10T18:06:57Z</time>
      </trkpt>
      <trkpt lat="47.35759" lon="0.05317">
        <ele>72.3</ele>
        <time>2023-10-10T18:07:06Z</time>
      </trkpt>
      <trkpt lat="47.35673" lon="0.05308">
        <ele>72</ele>
        <time>2023-10-10T18:07:26Z</time>
      </trkpt>
      <trkpt lat="47.3567" lon="0.05306">
        <ele>72</ele>
        <time>2023-10-10T18:07:27Z</time>
      </trkpt>
      <trkpt lat="47.35668" lon="0.05296">
        <ele>72</ele>
        <time>2023-10-10T18:07:29Z</time>
      </trkpt>
      <trkpt lat="47.35675" lon="0.05285">
        <ele>72</ele>
        <time>2023-10-10T18:07:31Z</time>
      </trkpt>
      <trkpt lat="47.35745" lon="0.05234">
        <ele>72</ele>
        <time>2023-10-10T18:07:49Z</time>
      </trkpt>
      <trkpt lat="47.35783" lon="0.05203">
        <ele>72.2</ele>
        <time>2023-10-10T18:08:00Z</time>
      </trkpt>
      <trkpt lat="47.35806" lon="0.05181">
        <ele>72.5</ele>
        <time>2023-10-10T18:08:06Z</time>
      </trkpt>
      <trkpt lat="47.3591" lon="0.05117">
        <ele>71.4</ele>
        <time>2023-10-10T18:08:32Z</time>
      </trkpt>
      <trkpt lat="47.35967" lon="0.05077">
        <ele>70</ele>
        <time>2023-10-10T18:08:47Z</time>
      </trkpt>
      <trkpt lat="47.3599" lon="0.05054">
        <ele>70</ele>
        <time>2023-10-10T18:08:54Z</time>
      </trkpt>
      <trkpt lat="47.36024" lon="0.05007">
        <ele>70.9</ele>
        <time>2023-10-10T18:09:04Z</time>
      </trkpt>
      <trkpt lat="47.36038" lon="0.04993">
        <ele>71.6</ele>
        <time>2023-10-10T18:09:08Z</time>
      </trkpt>
      <trkpt lat="47.36083" lon="0.04977">
        <ele>74</ele>
        <time>2023-10-10T18:09:19Z</time>
      </trkpt>
      <trkpt lat="47.36112" lon="0.0496">
        <ele>75</ele>
        <time>2023-10-10T18:09:26Z</time>
      </trkpt>
      <trkpt lat="47.36146" lon="0.04944">
        <ele>76.3</ele>
        <time>2023-10-10T18:09:35Z</time>
      </trkpt>
      <trkpt lat="47.36167" lon="0.04938">
        <ele>77</ele>
        <time>2023-10-10T18:09:40Z</time>
      </trkpt>
      <trkpt lat="47.36191" lon="0.04935">
        <ele>77.9</ele>
        <time>2023-10-10T18:09:45Z</time>
      </trkpt>
      <trkpt lat="47.36231" lon="0.04941">
        <ele>79.3</ele>
        <time>2023-10-10T18:09:55Z</time>
      </trkpt>
      <trkpt lat="47.36283" lon="0.04964">
        <ele>81.4</ele>
        <time>2023-10-10T18:10:07Z</time>
      </trkpt>
      <trkpt lat="47.36329" lon="0.04959">
        <ele>85.1</ele>
        <time>2023-10-10T18:10:18Z</time>
      </trkpt>
      <trkpt lat="47.36377" lon="0.0494">
        <ele>90.9</ele>
        <time>2023-10-10T18:10:30Z</time>
      </trkpt>
      <trkpt lat="47.36386" lon="0.04933">
        <ele>92.1</ele>
        <time>2023-10-10T18:10:32Z</time>
      </trkpt>
      <trkpt lat="47.36396" lon="0.04931">
        <ele>93</ele>
        <time>2023-10-10T18:10:35Z</time>
      </trkpt>
      <trkpt lat="47.36452" lon="0.04899">
        <ele>98.2</ele>
        <time>2023-10-10T18:10:49Z</time>
      </trkpt>
      <trkpt lat="47.365" lon="0.04877">
        <ele>101</ele>
        <time>2023-10-10T18:11:00Z</time>
      </trkpt>
      <trkpt lat="47.36524" lon="0.04871">
        <ele>101.9</ele>
        <time>2023-10-10T18:11:06Z</time>
      </trkpt>
      <trkpt lat="47.36541" lon="0.04862">
        <ele>102.5</ele>
        <time>2023-10-10T18:11:10Z</time>
      </trkpt>
      <trkpt lat="47.36568" lon="0.04854">
        <ele>103.4</ele>
        <time>2023-10-10T18:11:17Z</time>
      </trkpt>
      <trkpt lat="47.36604" lon="0.04838">
        <ele>104</ele>
        <time>2023-10-10T18:11:25Z</time>
      </trkpt>
      <trkpt lat="47.36716" lon="0.04817">
        <ele>102.2</ele>
        <time>2023-10-10T18:11:52Z</time>
      </trkpt>
      <trkpt lat="47.36747" lon="0.04814">
        <ele>101.4</ele>
        <time>2023-10-10T18:11:59Z</time>
      </trkpt>
      <trkpt lat="47.3681" lon="0.048">
        <ele>101</ele>
        <time>2023-10-10T18:12:14Z</time>
      </trkpt>
      <trkpt lat="47.36839" lon="0.04798">
        <ele>100.6</ele>
        <time>2023-10-10T18:12:21Z</time>
      </trkpt>
      <trkpt lat="47.36907" lon="0.04803">
        <ele>100</ele>
        <time>2023-10-10T18:12:37Z</time>
      </trkpt>
      <trkpt lat="47.36914" lon="0.04801">
        <ele>100</ele>
        <time>2023-10-10T18:12:38Z</time>
      </trkpt>
      <trkpt lat="47.36917" lon="0.04796">
        <ele>100</ele>
        <time>2023-10-10T18:12:39Z</time>
      </trkpt>
      <trkpt lat="47.36916" lon="0.0479">
        <ele>100</ele>
        <time>2023-10-10T18:12:40Z</time>
      </trkpt>
      <trkpt lat="47.36871" lon="0.04745">
        <ele>99.8</ele>
        <time>2023-10-10T18:12:53Z</time>
      </trkpt>
      <trkpt lat="47.36863" lon="0.04733">
        <ele>99.4</ele>
        <time>2023-10-10T18:12:56Z</time>
      </trkpt>
      <trkpt lat="47.36843" lon="0.04717">
        <ele>99.5</ele>
        <time>2023-10-10T18:13:01Z</time>
      </trkpt>
      <trkpt lat="47.36834" lon="0.04701">
        <ele>99.2</ele>
        <time>2023-10-10T18:13:04Z</time>
      </trkpt>
      <trkpt lat="47.36819" lon="0.04684">
        <ele>98.6</ele>
        <time>2023-10-10T18:13:09Z</time>
      </trkpt>
      <trkpt lat="47.36805" lon="0.04663">
        <ele>97.9</ele>
        <time>2023-10-10T18:13:13Z</time>
      </trkpt>
      <trkpt lat="47.36787" lon="0.04645">
        <ele>97.2</ele>
        <time>2023-10-10T18:13:18Z</time>
      </trkpt>
      <trkpt lat="47.3677" lon="0.04623">
        <ele>96.5</ele>
        <time>2023-10-10T18:13:24Z</time>
      </trkpt>
      <trkpt lat="47.36757" lon="0.04615">
        <ele>96.2</ele>
        <time>2023-10-10T18:13:27Z</time>
      </trkpt>
      <trkpt lat="47.36726" lon="0.04605">
        <ele>96.5</ele>
        <time>2023-10-10T18:13:34Z</time>
      </trkpt>
      <trkpt lat="47.36705" lon="0.04601">
        <ele>97.1</ele>
        <time>2023-10-10T18:13:39Z</time>
      </trkpt>
      <trkpt lat="47.36624" lon="0.04571">
        <ele>97.6</ele>
        <time>2023-10-10T18:13:59Z</time>
      </trkpt>
      <trkpt lat="47.36614" lon="0.0457">
        <ele>97.9</ele>
        <time>2023-10-10T18:14:01Z</time>
      </trkpt>
      <trkpt lat="47.36587" lon="0.04557">
        <ele>97.1</ele>
        <time>2023-10-10T18:14:08Z</time>
      </trkpt>
      <trkpt lat="47.36558" lon="0.0455">
        <ele>96.6</ele>
        <time>2023-10-10T18:14:15Z</time>
      </trkpt>
      <trkpt lat="47.36548" lon="0.04543">
        <ele>96.2</ele>
        <time>2023-10-10T18:14:17Z</time>
      </trkpt>
      <trkpt lat="47.36508" lon="0.04524">
        <ele>95.7</ele>
        <time>2023-10-10T18:14:27Z</time>
      </trkpt>
      <trkpt lat="47.36491" lon="0.04514">
        <ele>94.8</ele>
        <time>2023-10-10T18:14:31Z</time>
      </trkpt>
      <trkpt lat="47.36464" lon="0.04492">
        <ele>93.2</ele>
        <time>2023-10-10T18:14:39Z</time>
      </trkpt>
      <trkpt lat="47.36449" lon="0.04464">
        <ele>91.4</ele>
        <time>2023-10-10T18:14:44Z</time>
      </trkpt>
      <trkpt lat="47.36437" lon="0.04451">
        <ele>90.2</ele>
        <time>2023-10-10T18:14:48Z</time>
      </trkpt>
      <trkpt lat="47.36402" lon="0.04427">
        <ele>87.8</ele>
        <time>2023-10-10T18:14:57Z</time>
      </trkpt>
      <trkpt lat="47.36381" lon="0.04403">
        <ele>86.2</ele>
        <time>2023-10-10T18:15:03Z</time>
      </trkpt>
      <trkpt lat="47.36369" lon="0.04398">
        <ele>85.6</ele>
        <time>2023-10-10T18:15:06Z</time>
      </trkpt>
      <trkpt lat="47.36349" lon="0.04399">
        <ele>84.5</ele>
        <time>2023-10-10T18:15:10Z</time>
      </trkpt>
      <trkpt lat="47.36284" lon="0.04393">
        <ele>80.4</ele>
        <time>2023-10-10T18:15:26Z</time>
      </trkpt>
      <trkpt lat="47.36217" lon="0.04381">
        <ele>75.8</ele>
        <time>2023-10-10T18:15:41Z</time>
      </trkpt>
      <trkpt lat="47.36179" lon="0.04384">
        <ele>74.3</ele>
        <time>2023-10-10T18:15:50Z</time>
      </trkpt>
      <trkpt lat="47.36157" lon="0.04382">
        <ele>73.5</ele>
        <time>2023-10-10T18:15:56Z</time>
      </trkpt>
      <trkpt lat="47.36143" lon="0.04375">
        <ele>73.1</ele>
        <time>2023-10-10T18:15:59Z</time>
      </trkpt>
      <trkpt lat="47.3612" lon="0.04355">
        <ele>72.3</ele>
        <time>2023-10-10T18:16:05Z</time>
      </trkpt>
      <trkpt lat="47.36097" lon="0.04342">
        <ele>72</ele>
        <time>2023-10-10T18:16:11Z</time>
      </trkpt>
      <trkpt lat="47.36066" lon="0.04328">
        <ele>72</ele>
        <time>2023-10-10T18:16:19Z</time>
      </trkpt>
      <trkpt lat="47.36037" lon="0.0432">
        <ele>72</ele>
        <time>2023-10-10T18:16:25Z</time>
      </trkpt>
      <trkpt lat="47.36006" lon="0.04308">
        <ele>72</ele>
        <time>2023-10-10T18:16:33Z</time>
      </trkpt>
      <trkpt lat="47.35976" lon="0.04293">
        <ele>72</ele>
        <time>2023-10-10T18:16:40Z</time>
      </trkpt>
      <trkpt lat="47.35949" lon="0.043">
        <ele>71.3</ele>
        <time>2023-10-10T18:16:47Z</time>
      </trkpt>
      <trkpt lat="47.3591" lon="0.04316">
        <ele>70.9</ele>
        <time>2023-10-10T18:16:56Z</time>
      </trkpt>
      <trkpt lat="47.35861" lon="0.04326">
        <ele>70.3</ele>
        <time>2023-10-10T18:17:08Z</time>
      </trkpt>
      <trkpt lat="47.3579" lon="0.04368">
        <ele>69.8</ele>
        <time>2023-10-10T18:17:26Z</time>
      </trkpt>
      <trkpt lat="47.35766" lon="0.04379">
        <ele>69.4</ele>
        <time>2023-10-10T18:17:31Z</time>
      </trkpt>
      <trkpt lat="47.35741" lon="0.04386">
        <ele>69.1</ele>
        <time>2023-10-10T18:17:37Z</time>
      </trkpt>
      <trkpt lat="47.35717" lon="0.04396">
        <ele>69</ele>
        <time>2023-10-10T18:17:43Z</time>
      </trkpt>
      <trkpt lat="47.35704" lon="0.04408">
        <ele>69</ele>
        <time>2023-10-10T18:17:47Z</time>
      </trkpt>
      <trkpt lat="47.35689" lon="0.04432">
        <ele>68.4</ele>
        <time>2023-10-10T18:17:52Z</time>
      </trkpt>
      <trkpt lat="47.35684" lon="0.04433">
        <ele>68.3</ele>
        <time>2023-10-10T18:17:53Z</time>
      </trkpt>
      <trkpt lat="47.35681" lon="0.04431">
        <ele>68.2</ele>
        <time>2023-10-10T18:17:54Z</time>
      </trkpt>
      <trkpt lat="47.35677" lon="0.04421">
        <ele>68.3</ele>
        <time>2023-10-10T18:17:56Z</time>
      </trkpt>
      <trkpt lat="47.35675" lon="0.0439">
        <ele>69</ele>
        <time>2023-10-10T18:18:01Z</time>
      </trkpt>
      <trkpt lat="47.3566" lon="0.04356">
        <ele>69</ele>
        <time>2023-10-10T18:18:07Z</time>
      </trkpt>
      <trkpt lat="47.3565" lon="0.04316">
        <ele>69</ele>
        <time>2023-10-10T18:18:14Z</time>
      </trkpt>
      <trkpt lat="47.35629" lon="0.04277">
        <ele>69</ele>
        <time>2023-10-10T18:18:22Z</time>
      </trkpt>
      <trkpt lat="47.35615" lon="0.04242">
        <ele>69.4</ele>
        <time>2023-10-10T18:18:28Z</time>
      </trkpt>
      <trkpt lat="47.35616" lon="0.04216">
        <ele>70</ele>
        <time>2023-10-10T18:18:32Z</time>
      </trkpt>
      <trkpt lat="47.35612" lon="0.04183">
        <ele>70</ele>
        <time>2023-10-10T18:18:38Z</time>
      </trkpt>
      <trkpt lat="47.35604" lon="0.04158">
        <ele>70</ele>
        <time>2023-10-10T18:18:42Z</time>
      </trkpt>
      <trkpt lat="47.35605" lon="0.04105">
        <ele>70.8</ele>
        <time>2023-10-10T18:18:50Z</time>
      </trkpt>
      <trkpt lat="47.35589" lon="0.04044">
        <ele>71.1</ele>
        <time>2023-10-10T18:19:01Z</time>
      </trkpt>
      <trkpt lat="47.35584" lon="0.03979">
        <ele>71.8</ele>
        <time>2023-10-10T18:19:11Z</time>
      </trkpt>
      <trkpt lat="47.35577" lon="0.03949">
        <ele>72</ele>
        <time>2023-10-10T18:19:16Z</time>
      </trkpt>
      <trkpt lat="47.35577" lon="0.03921">
        <ele>72.7</ele>
        <time>2023-10-10T18:19:20Z</time>
      </trkpt>
      <trkpt lat="47.35573" lon="0.03898">
        <ele>72.9</ele>
        <time>2023-10-10T18:19:24Z</time>
      </trkpt>
      <trkpt lat="47.35573" lon="0.03875">
        <ele>73.3</ele>
        <time>2023-10-10T18:19:28Z</time>
      </trkpt>
      <trkpt lat="47.35566" lon="0.03812">
        <ele>73.9</ele>
        <time>2023-10-10T18:19:38Z</time>
      </trkpt>
      <trkpt lat="47.35557" lon="0.03784">
        <ele>74</ele>
        <time>2023-10-10T18:19:43Z</time>
      </trkpt>
      <trkpt lat="47.3555" lon="0.03741">
        <ele>74.9</ele>
        <time>2023-10-10T18:19:50Z</time>
      </trkpt>
      <trkpt lat="47.35535" lon="0.03678">
        <ele>75.9</ele>
        <time>2023-10-10T18:20:00Z</time>
      </trkpt>
      <trkpt lat="47.35517" lon="0.03634">
        <ele>76.7</ele>
        <time>2023-10-10T18:20:09Z</time>
      </trkpt>
      <trkpt lat="47.35512" lon="0.03608">
        <ele>77</ele>
        <time>2023-10-10T18:20:13Z</time>
      </trkpt>
      <trkpt lat="47.355" lon="0.03591">
        <ele>77</ele>
        <time>2023-10-10T18:20:17Z</time>
      </trkpt>
      <trkpt lat="47.35496" lon="0.03588">
        <ele>77</ele>
        <time>2023-10-10T18:20:18Z</time>
      </trkpt>
      <trkpt lat="47.35488" lon="0.03587">
        <ele>77</ele>
        <time>2023-10-10T18:20:20Z</time>
      </trkpt>
      <trkpt lat="47.35455" lon="0.03592">
        <ele>77.6</ele>
        <time>2023-10-10T18:20:27Z</time>
      </trkpt>
      <trkpt lat="47.35435" lon="0.03598">
        <ele>78.2</ele>
        <time>2023-10-10T18:20:32Z</time>
      </trkpt>
      <trkpt lat="47.35424" lon="0.03605">
        <ele>78.2</ele>
        <time>2023-10-10T18:20:35Z</time>
      </trkpt>
      <trkpt lat="47.35397" lon="0.03615">
        <ele>79.3</ele>
        <time>2023-10-10T18:20:41Z</time>
      </trkpt>
      <trkpt lat="47.35377" lon="0.03618">
        <ele>79.9</ele>
        <time>2023-10-10T18:20:46Z</time>
      </trkpt>
      <trkpt lat="47.35364" lon="0.03614">
        <ele>80</ele>
        <time>2023-10-10T18:20:49Z</time>
      </trkpt>
      <trkpt lat="47.35328" lon="0.03596">
        <ele>81.7</ele>
        <time>2023-10-10T18:20:58Z</time>
      </trkpt>
      <trkpt lat="47.35293" lon="0.03584">
        <ele>83</ele>
        <time>2023-10-10T18:21:07Z</time>
      </trkpt>
      <trkpt lat="47.35256" lon="0.03573">
        <ele>84.6</ele>
        <time>2023-10-10T18:21:15Z</time>
      </trkpt>
      <trkpt lat="47.35239" lon="0.03572">
        <ele>86</ele>
        <time>2023-10-10T18:21:19Z</time>
      </trkpt>
      <trkpt lat="47.35224" lon="0.03568">
        <ele>87.3</ele>
        <time>2023-10-10T18:21:23Z</time>
      </trkpt>
      <trkpt lat="47.35196" lon="0.03554">
        <ele>89.8</ele>
        <time>2023-10-10T18:21:30Z</time>
      </trkpt>
      <trkpt lat="47.35141" lon="0.03535">
        <ele>95.1</ele>
        <time>2023-10-10T18:21:43Z</time>
      </trkpt>
      <trkpt lat="47.35088" lon="0.03521">
        <ele>99.4</ele>
        <time>2023-10-10T18:21:56Z</time>
      </trkpt>
      <trkpt lat="47.35025" lon="0.03497">
        <ele>103.1</ele>
        <time>2023-10-10T18:22:11Z</time>
      </trkpt>
      <trkpt lat="47.3498" lon="0.03487">
        <ele>104.7</ele>
        <time>2023-10-10T18:22:21Z</time>
      </trkpt>
      <trkpt lat="47.3492" lon="0.03449">
        <ele>106</ele>
        <time>2023-10-10T18:22:37Z</time>
      </trkpt>
      <trkpt lat="47.34908" lon="0.03445">
        <ele>106</ele>
        <time>2023-10-10T18:22:39Z</time>
      </trkpt>
      <trkpt lat="47.34866" lon="0.03418">
        <ele>106</ele>
        <time>2023-10-10T18:22:50Z</time>
      </trkpt>
      <trkpt lat="47.3485" lon="0.03412">
        <ele>106</ele>
        <time>2023-10-10T18:22:54Z</time>
      </trkpt>
      <trkpt lat="47.34822" lon="0.03396">
        <ele>106</ele>
        <time>2023-10-10T18:23:01Z</time>
      </trkpt>
      <trkpt lat="47.3479" lon="0.03373">
        <ele>106</ele>
        <time>2023-10-10T18:23:09Z</time>
      </trkpt>
      <trkpt lat="47.34762" lon="0.03357">
        <ele>106</ele>
        <time>2023-10-10T18:23:16Z</time>
      </trkpt>
      <trkpt lat="47.34663" lon="0.03306">
        <ele>106</ele>
        <time>2023-10-10T18:23:41Z</time>
      </trkpt>
      <trkpt lat="47.34614" lon="0.03277">
        <ele>105.1</ele>
        <time>2023-10-10T18:23:53Z</time>
      </trkpt>
      <trkpt lat="47.3461" lon="0.0327">
        <ele>105</ele>
        <time>2023-10-10T18:23:55Z</time>
      </trkpt>
      <trkpt lat="47.34613" lon="0.03252">
        <ele>105.1</ele>
        <time>2023-10-10T18:23:58Z</time>
      </trkpt>
      <trkpt lat="47.34649" lon="0.03176">
        <ele>105.6</ele>
        <time>2023-10-10T18:24:12Z</time>
      </trkpt>
      <trkpt lat="47.34657" lon="0.03153">
        <ele>105.7</ele>
        <time>2023-10-10T18:24:16Z</time>
      </trkpt>
      <trkpt lat="47.34667" lon="0.03138">
        <ele>106</ele>
        <time>2023-10-10T18:24:20Z</time>
      </trkpt>
      <trkpt lat="47.34684" lon="0.03086">
        <ele>106</ele>
        <time>2023-10-10T18:24:29Z</time>
      </trkpt>
      <trkpt lat="47.34693" lon="0.03046">
        <ele>105.9</ele>
        <time>2023-10-10T18:24:35Z</time>
      </trkpt>
      <trkpt lat="47.34703" lon="0.03027">
        <ele>106</ele>
        <time>2023-10-10T18:24:39Z</time>
      </trkpt>
      <trkpt lat="47.34723" lon="0.02975">
        <ele>106</ele>
        <time>2023-10-10T18:24:49Z</time>
      </trkpt>
      <trkpt lat="47.34738" lon="0.02958">
        <ele>106</ele>
        <time>2023-10-10T18:24:53Z</time>
      </trkpt>
      <trkpt lat="47.34743" lon="0.02943">
        <ele>106</ele>
        <time>2023-10-10T18:24:56Z</time>
      </trkpt>
      <trkpt lat="47.34744" lon="0.02926">
        <ele>106</ele>
        <time>2023-10-10T18:24:58Z</time>
      </trkpt>
      <trkpt lat="47.34753" lon="0.02892">
        <ele>106</ele>
        <time>2023-10-10T18:25:04Z</time>
      </trkpt>
      <trkpt lat="47.34776" lon="0.02817">
        <ele>106</ele>
        <time>2023-10-10T18:25:17Z</time>
      </trkpt>
      <trkpt lat="47.34783" lon="0.02809">
        <ele>106</ele>
        <time>2023-10-10T18:25:19Z</time>
      </trkpt>
      <trkpt lat="47.34809" lon="0.0279">
        <ele>106</ele>
        <time>2023-10-10T18:25:26Z</time>
      </trkpt>
      <trkpt lat="47.34817" lon="0.02787">
        <ele>106</ele>
        <time>2023-10-10T18:25:28Z</time>
      </trkpt>
      <trkpt lat="47.34879" lon="0.02825">
        <ele>105</ele>
        <time>2023-10-10T18:25:44Z</time>
      </trkpt>
      <trkpt lat="47.34897" lon="0.02829">
        <ele>104.8</ele>
        <time>2023-10-10T18:25:48Z</time>
      </trkpt>
      <trkpt lat="47.34924" lon="0.028">
        <ele>105</ele>
        <time>2023-10-10T18:25:56Z</time>
      </trkpt>
      <trkpt lat="47.34955" lon="0.02757">
        <ele>105.7</ele>
        <time>2023-10-10T18:26:06Z</time>
      </trkpt>
      <trkpt lat="47.3499" lon="0.02672">
        <ele>106.8</ele>
        <time>2023-10-10T18:26:21Z</time>
      </trkpt>
      <trkpt lat="47.34999" lon="0.02632">
        <ele>106.7</ele>
        <time>2023-10-10T18:26:28Z</time>
      </trkpt>
      <trkpt lat="47.35003" lon="0.02626">
        <ele>106.5</ele>
        <time>2023-10-10T18:26:29Z</time>
      </trkpt>
      <trkpt lat="47.35015" lon="0.02591">
        <ele>106</ele>
        <time>2023-10-10T18:26:36Z</time>
      </trkpt>
      <trkpt lat="47.3502" lon="0.02552">
        <ele>104.9</ele>
        <time>2023-10-10T18:26:42Z</time>
      </trkpt>
      <trkpt lat="47.35034" lon="0.025">
        <ele>103</ele>
        <time>2023-10-10T18:26:51Z</time>
      </trkpt>
      <trkpt lat="47.35041" lon="0.0245">
        <ele>100.3</ele>
        <time>2023-10-10T18:26:59Z</time>
      </trkpt>
      <trkpt lat="47.35034" lon="0.02423">
        <ele>99.2</ele>
        <time>2023-10-10T18:27:03Z</time>
      </trkpt>
      <trkpt lat="47.35024" lon="0.02414">
        <ele>98.7</ele>
        <time>2023-10-10T18:27:06Z</time>
      </trkpt>
      <trkpt lat="47.35003" lon="0.02402">
        <ele>97.5</ele>
        <time>2023-10-10T18:27:11Z</time>
      </trkpt>
      <trkpt lat="47.34992" lon="0.02391">
        <ele>97.1</ele>
        <time>2023-10-10T18:27:15Z</time>
      </trkpt>
      <trkpt lat="47.34992" lon="0.02367">
        <ele>96.2</ele>
        <time>2023-10-10T18:27:18Z</time>
      </trkpt>
      <trkpt lat="47.34998" lon="0.02305">
        <ele>93</ele>
        <time>2023-10-10T18:27:28Z</time>
      </trkpt>
      <trkpt lat="47.35021" lon="0.02193">
        <ele>87.9</ele>
        <time>2023-10-10T18:27:47Z</time>
      </trkpt>
      <trkpt lat="47.35041" lon="0.02143">
        <ele>85.7</ele>
        <time>2023-10-10T18:27:56Z</time>
      </trkpt>
      <trkpt lat="47.35048" lon="0.02117">
        <ele>85.2</ele>
        <time>2023-10-10T18:28:00Z</time>
      </trkpt>
      <trkpt lat="47.35052" lon="0.02062">
        <ele>83.2</ele>
        <time>2023-10-10T18:28:09Z</time>
      </trkpt>
      <trkpt lat="47.35056" lon="0.02043">
        <ele>83</ele>
        <time>2023-10-10T18:28:12Z</time>
      </trkpt>
      <trkpt lat="47.35071" lon="0.01991">
        <ele>81.9</ele>
        <time>2023-10-10T18:28:21Z</time>
      </trkpt>
      <trkpt lat="47.35087" lon="0.01958">
        <ele>81.6</ele>
        <time>2023-10-10T18:28:28Z</time>
      </trkpt>
      <trkpt lat="47.35105" lon="0.01903">
        <ele>80.9</ele>
        <time>2023-10-10T18:28:37Z</time>
      </trkpt>
      <trkpt lat="47.35121" lon="0.01871">
        <ele>80.2</ele>
        <time>2023-10-10T18:28:44Z</time>
      </trkpt>
      <trkpt lat="47.35126" lon="0.01839">
        <ele>79.2</ele>
        <time>2023-10-10T18:28:49Z</time>
      </trkpt>
      <trkpt lat="47.35124" lon="0.01795">
        <ele>77.6</ele>
        <time>2023-10-10T18:28:56Z</time>
      </trkpt>
      <trkpt lat="47.35122" lon="0.0178">
        <ele>77.1</ele>
        <time>2023-10-10T18:28:58Z</time>
      </trkpt>
      <trkpt lat="47.35111" lon="0.0175">
        <ele>77</ele>
        <time>2023-10-10T18:29:04Z</time>
      </trkpt>
      <trkpt lat="47.35111" lon="0.01746">
        <ele>77</ele>
        <time>2023-10-10T18:29:04Z</time>
      </trkpt>
    </trkseg>
  </trk>
</gpx>